Air Quality Table

TIMESTAMP NO2 SO2 O3 PM10 PM2.5 TEMP HUM AIRPRES WS WD NO
2023-06-10 13:00 11.96 µg/m3 0.32 µg/m3 84.14 µg/m3 34.93 µg/m3 8.76 µg/m3 23.53 °C 66.24 % 1,004.72 mbar 2.2 m/s 136.82 Deg 4.29 µg/m3
2023-06-10 12:00 34.91 µg/m3 0.57 µg/m3 56.6 µg/m3 37.43 µg/m3 10.2 µg/m3 22.75 °C 73.53 % 1,005.52 mbar 1.84 m/s 254.72 Deg 6.16 µg/m3
2023-06-10 11:00 31.72 µg/m3 0.49 µg/m3 55.12 µg/m3 38.3 µg/m3 11.26 µg/m3 22.67 °C 80.63 % 1,006.79 mbar 3.3 m/s 341.02 Deg 4.29 µg/m3
2023-06-10 10:00 22.4 µg/m3 0.35 µg/m3 58.88 µg/m3 41.4 µg/m3 17.8 µg/m3 22.43 °C 87.31 % 1,006.68 mbar 2.48 m/s 313.88 Deg 3.59 µg/m3
2023-06-10 09:00 26.33 µg/m3 0.45 µg/m3 56.13 µg/m3 45.1 µg/m3 6.2 µg/m3 22.83 °C 81.57 % 1,006.27 mbar 2.05 m/s 310.65 Deg 4.82 µg/m3
2023-06-10 08:00 14.8 µg/m3 0.24 µg/m3 58.71 µg/m3 34.47 µg/m3 5.84 µg/m3 22.42 °C 84.2 % 1,005.76 mbar 1.36 m/s 280.52 Deg 1.85 µg/m3
2023-06-10 07:00 13.48 µg/m3 0.2 µg/m3 58.28 µg/m3 22.74 µg/m3 7.07 µg/m3 22.41 °C 81.8 % 1,005.83 mbar 1.54 m/s 253.38 Deg 1.58 µg/m3
2023-06-10 06:00 9.17 µg/m3 0.1 µg/m3 60.42 µg/m3 19.47 µg/m3 11.26 µg/m3 21.64 °C 85.78 % 1,005.65 mbar 1.29 m/s 240.53 Deg 0.8 µg/m3
2023-06-10 05:00 6.14 µg/m3 0.1 µg/m3 60.64 µg/m3 9.73 µg/m3 6.88 µg/m3 21.28 °C 89.14 % 1,005.54 mbar 1.77 m/s 244.08 Deg 0.52 µg/m3
2023-06-10 04:00 2.16 µg/m3 0.06 µg/m3 66.58 µg/m3 7.61 µg/m3 6.69 µg/m3 21.44 °C 87.74 % 1,006.06 mbar 1.94 m/s 251.35 Deg 0.17 µg/m3
2023-06-10 03:00 1.82 µg/m3 0.11 µg/m3 65.02 µg/m3 11.86 µg/m3 7.33 µg/m3 21.22 °C 91.57 % 1,005.84 mbar 2.27 m/s 232.78 Deg 0.15 µg/m3
2023-06-10 02:00 3.06 µg/m3 0.07 µg/m3 64.05 µg/m3 19.95 µg/m3 9.3 µg/m3 21.41 °C 91.47 % 1,005.92 mbar 3.62 m/s 209.42 Deg 0.13 µg/m3
2023-06-10 01:00 9.46 µg/m3 0.1 µg/m3 60.17 µg/m3 31.29 µg/m3 11.75 µg/m3 21.4 °C 92.52 % 1,006.29 mbar 3.35 m/s 205.97 Deg 0.16 µg/m3
2023-06-10 00:00 7.62 µg/m3 0.1 µg/m3 57.63 µg/m3 32.71 µg/m3 8.12 µg/m3 21.45 °C 93.22 % 1,007.08 mbar 3.54 m/s 194.43 Deg 0.19 µg/m3
2023-06-09 23:00 14.26 µg/m3 0.16 µg/m3 50.9 µg/m3 23.69 µg/m3 10.7 µg/m3 21.58 °C 92.81 % 1,007.70 mbar 1.99 m/s 195.1 Deg 0.26 µg/m3
2023-06-09 22:00 41.56 µg/m3 0.34 µg/m3 25.73 µg/m3 27.36 µg/m3 8.35 µg/m3 21.72 °C 90.64 % 1,007.75 mbar 1.58 m/s 194.1 Deg 0.95 µg/m3
2023-06-09 21:00 10.25 µg/m3 0.2 µg/m3 56.4 µg/m3 29.33 µg/m3 9.52 µg/m3 21.66 °C 90.11 % 1,007.26 mbar 1.54 m/s 159.93 Deg 0.22 µg/m3
2023-06-09 20:00 21.94 µg/m3 0.28 µg/m3 47.45 µg/m3 26.98 µg/m3 7.47 µg/m3 21.97 °C 87.74 % 1,006.82 mbar 1.51 m/s 162.43 Deg 0.42 µg/m3
2023-06-09 19:00 19.46 µg/m3 0.23 µg/m3 54.07 µg/m3 23.87 µg/m3 7.74 µg/m3 22.72 °C 81.23 % 1,006.94 mbar 2.28 m/s 177.32 Deg 0.98 µg/m3
2023-06-09 18:00 16.96 µg/m3 0.16 µg/m3 60.9 µg/m3 22.37 µg/m3 8.31 µg/m3 22.98 °C 78.03 % 1,006.90 mbar 3.17 m/s 186.08 Deg 1.96 µg/m3
2023-06-09 17:00 10.48 µg/m3 0.25 µg/m3 70.7 µg/m3 18.42 µg/m3 6.81 µg/m3 23.24 °C 78.11 % 1,006.84 mbar 3.51 m/s 173.15 Deg 1.63 µg/m3
2023-06-09 16:00 10.42 µg/m3 0.18 µg/m3 75.88 µg/m3 18.76 µg/m3 7.8 µg/m3 24 °C 72.06 % 1,007.27 mbar 3.37 m/s 179.5 Deg 1.85 µg/m3
2023-06-09 15:00 10.09 µg/m3 0.18 µg/m3 76.9 µg/m3 11.4 µg/m3 9.95 µg/m3 23.78 °C 74.71 % 1,007.38 mbar 4.09 m/s 172.07 Deg 1.98 µg/m3
2023-06-09 14:00 11.13 µg/m3 0.26 µg/m3 77.42 µg/m3 8.75 µg/m3 5.23 µg/m3 23.99 °C 71.43 % 1,007.77 mbar 3.88 m/s 184.58 Deg 2.35 µg/m3
2023-06-09 13:00 7.18 µg/m3 0.17 µg/m3 81.66 µg/m3 10.1 µg/m3 6.42 µg/m3 24.12 °C 67.96 % 1,007.82 mbar 4.14 m/s 181.03 Deg 1.37 µg/m3
2023-06-09 12:00 8.16 µg/m3 0.21 µg/m3 80.87 µg/m3 10.1 µg/m3 6.91 µg/m3 23.46 °C 71.84 % 1,007.97 mbar 4.71 m/s 156.77 Deg 1.59 µg/m3
2023-06-09 11:00 6.38 µg/m3 0.18 µg/m3 84.51 µg/m3 11.5 µg/m3 8.16 µg/m3 23.99 °C 64.44 % 1,008.30 mbar 3.87 m/s 176.15 Deg 1.13 µg/m3
2023-06-09 10:00 12.96 µg/m3 0.28 µg/m3 83.18 µg/m3 15.6 µg/m3 10.57 µg/m3 23.38 °C 67.37 % 1,008.16 mbar 3.44 m/s 182 Deg 2.58 µg/m3
2023-06-09 09:00 7.99 µg/m3 0.26 µg/m3 88.32 µg/m3 24.74 µg/m3 16 µg/m3 22.87 °C 70.53 % 1,008.06 mbar 2.81 m/s 182.65 Deg 1.25 µg/m3
2023-06-09 08:00 12.51 µg/m3 0.28 µg/m3 83.93 µg/m3 43.43 µg/m3 12.44 µg/m3 21.76 °C 84.85 % 1,007.92 mbar 2.43 m/s 184.6 Deg 1.91 µg/m3
2023-06-09 07:00 44.73 µg/m3 0.77 µg/m3 45.83 µg/m3 31.79 µg/m3 9.61 µg/m3 20.67 °C 92.7 % 1,007.40 mbar 1.91 m/s 172.03 Deg 10.81 µg/m3
2023-06-09 06:00 24.54 µg/m3 0.27 µg/m3 61.35 µg/m3 23.56 µg/m3 10.88 µg/m3 19.61 °C 96.71 % 1,007.09 mbar 1.19 m/s 203.62 Deg 2.55 µg/m3
2023-06-09 05:00 22.85 µg/m3 0.27 µg/m3 69.5 µg/m3 23.46 µg/m3 16.31 µg/m3 19.81 °C 95.03 % 1,007.01 mbar 1.02 m/s 227.02 Deg 0.64 µg/m3
2023-06-09 04:00 14.12 µg/m3 0.21 µg/m3 65.09 µg/m3 28.04 µg/m3 19.15 µg/m3 19.59 °C 92.03 % 1,007.02 mbar 0.82 m/s 243.32 Deg 0.19 µg/m3
2023-06-09 03:00 6.31 µg/m3 0.16 µg/m3 69.44 µg/m3 25.69 µg/m3 19.1 µg/m3 19.77 °C 90.76 % 1,006.98 mbar 0.54 m/s 182.01 Deg 0.15 µg/m3
2023-06-09 02:00 10.54 µg/m3 0.27 µg/m3 65.7 µg/m3 36.27 µg/m3 26.45 µg/m3 20.02 °C 84.58 % 1,007.22 mbar 0.4 m/s 169.77 Deg 0.23 µg/m3
2023-06-09 01:00 8.54 µg/m3 0.26 µg/m3 72.65 µg/m3 49.38 µg/m3 29.1 µg/m3 20.56 °C 81.43 % 1,007.84 mbar 0.34 m/s 217.72 Deg 0.2 µg/m3
2023-06-09 00:00 14.39 µg/m3 0.44 µg/m3 70.81 µg/m3 53.94 µg/m3 23.13 µg/m3 20.89 °C 73.11 % 1,008.25 mbar 0.48 m/s 171.06 Deg 0.21 µg/m3
2023-06-08 23:00 16.06 µg/m3 0.45 µg/m3 80.4 µg/m3 41.94 µg/m3 11.56 µg/m3 21.29 °C 69.77 % 1,008.45 mbar 0.74 m/s 300.28 Deg 0.22 µg/m3
2023-06-08 22:00 15.49 µg/m3 0.44 µg/m3 77.49 µg/m3 38.26 µg/m3 8.57 µg/m3 21.14 °C 78.08 % 1,008.24 mbar 0.76 m/s 234.38 Deg 0.27 µg/m3
2023-06-08 21:00 6.61 µg/m3 0.24 µg/m3 88.89 µg/m3 27.17 µg/m3 8.74 µg/m3 21.41 °C 79.01 % 1,007.78 mbar 0.95 m/s 171.78 Deg 0.13 µg/m3
2023-06-08 20:00 12.37 µg/m3 0.36 µg/m3 89.6 µg/m3 13.52 µg/m3 7.49 µg/m3 22.49 °C 65.88 % 1,007.15 mbar 1.13 m/s 190.88 Deg 0.18 µg/m3
2023-06-08 19:00 16.96 µg/m3 0.43 µg/m3 87.73 µg/m3 14.22 µg/m3 4.57 µg/m3 24.02 °C 51.91 % 1,006.84 mbar 1.68 m/s 282.68 Deg 0.78 µg/m3
2023-06-08 18:00 9.42 µg/m3 0.42 µg/m3 97.71 µg/m3 15.27 µg/m3 4.74 µg/m3 24.54 °C 50.45 % 1,007.00 mbar 2.5 m/s 266.43 Deg 0.7 µg/m3
2023-06-08 17:00 9.48 µg/m3 0.44 µg/m3 99.8 µg/m3 22.65 µg/m3 5.86 µg/m3 25.02 °C 52.5 % 1,007.29 mbar 1.98 m/s 266.5 Deg 1.12 µg/m3
2023-06-08 16:00 5.43 µg/m3 0.3 µg/m3 107.41 µg/m3 19.92 µg/m3 4.9 µg/m3 24.31 °C 60.56 % 1,007.63 mbar 2.76 m/s 169.03 Deg 0.5 µg/m3
2023-06-08 15:00 7.44 µg/m3 0.37 µg/m3 106.56 µg/m3 17.31 µg/m3 6.91 µg/m3 24.81 °C 58.27 % 1,008.03 mbar 2.13 m/s 107.03 Deg 1.15 µg/m3
2023-06-08 14:00 7.54 µg/m3 0.36 µg/m3 107.15 µg/m3 22.06 µg/m3 8.1 µg/m3 24.9 °C 55.97 % 1,008.30 mbar 3.06 m/s 31.18 Deg 1.06 µg/m3
2023-06-08 13:00 8.15 µg/m3 0.37 µg/m3 100.55 µg/m3 23.82 µg/m3 9.76 µg/m3 25.17 °C 53.28 % 1,008.43 mbar 3.97 m/s 161.13 Deg 1.49 µg/m3
2023-06-08 12:00 6.48 µg/m3 0.47 µg/m3 91.26 µg/m3 28.72 µg/m3 11.86 µg/m3 23.96 °C 64.78 % 1,008.81 mbar 3.53 m/s 153.6 Deg 226.51 µg/m3
2023-06-08 11:00 9.35 µg/m3 0.47 µg/m3 88.27 µg/m3 33.32 µg/m3 11.9 µg/m3 23.38 °C 62.75 % 1,008.96 mbar 3.43 m/s 161.83 Deg 60.08 µg/m3
2023-06-08 10:00 25.14 µg/m3 0.81 µg/m3 81.49 µg/m3 35.98 µg/m3 9.94 µg/m3 24.3 °C 57.64 % 1,008.84 mbar 2.24 m/s 139.93 Deg 5.42 µg/m3
2023-06-08 09:00 44.49 µg/m3 0 µg/m3 60.99 µg/m3 30.78 µg/m3 8.75 µg/m3 24.06 °C 54.24 % 1,008.82 mbar 1.39 m/s 246.1 Deg 11.83 µg/m3
2023-06-08 08:00 80.24 µg/m3 0.94 µg/m3 24.73 µg/m3 30.13 µg/m3 12.84 µg/m3 22.52 °C 58.06 % 1,008.74 mbar 1.21 m/s 180.02 Deg 32.34 µg/m3
2023-06-08 07:00 71.02 µg/m3 1.05 µg/m3 25.49 µg/m3 19.12 µg/m3 7.03 µg/m3 21.39 °C 62.64 % 1,008.53 mbar 1.07 m/s 327.02 Deg 20.4 µg/m3
2023-06-08 06:00 58.03 µg/m3 0.87 µg/m3 32.45 µg/m3 21.26 µg/m3 7.31 µg/m3 20.12 °C 73.21 % 1,008.42 mbar 1.11 m/s 321.35 Deg 10.22 µg/m3
2023-06-08 05:00 27.09 µg/m3 0.13 µg/m3 50.61 µg/m3 19.67 µg/m3 6.78 µg/m3 19.73 °C 84.31 % 1,008.29 mbar 0.93 m/s 319.6 Deg 1.84 µg/m3
2023-06-08 04:00 13.01 µg/m3 0.12 µg/m3 62.2 µg/m3 23.47 µg/m3 7.16 µg/m3 19.77 °C 85.41 % 1,008.46 mbar 0.85 m/s 297.65 Deg 0.59 µg/m3
2023-06-08 03:00 11.76 µg/m3 0.11 µg/m3 63.28 µg/m3 18.82 µg/m3 7.98 µg/m3 20.13 °C 86.43 % 1,008.71 mbar 0.78 m/s 315.15 Deg 0.56 µg/m3
2023-06-08 02:00 16.79 µg/m3 0.1 µg/m3 67.4 µg/m3 15.8 µg/m3 9.48 µg/m3 20.48 °C 84.15 % 1,009.15 mbar 0.89 m/s 337.68 Deg 0.56 µg/m3
2023-06-08 01:00 18 µg/m3 0.16 µg/m3 72.36 µg/m3 23.32 µg/m3 11.76 µg/m3 20.66 °C 83.58 % 1,009.46 mbar 1.07 m/s 338.21 Deg 0.54 µg/m3
2023-06-08 00:00 11.78 µg/m3 0.14 µg/m3 80.49 µg/m3 30.32 µg/m3 12.49 µg/m3 20.73 °C 88.07 % 1,009.72 mbar 1.92 m/s 344.52 Deg 0.6 µg/m3
2023-06-07 23:00 12.02 µg/m3 0.15 µg/m3 83.39 µg/m3 31.49 µg/m3 9.44 µg/m3 21.03 °C 86.39 % 1,009.79 mbar 1.64 m/s 267.15 Deg 0.65 µg/m3
2023-06-07 22:00 8.38 µg/m3 0.27 µg/m3 96.89 µg/m3 33.23 µg/m3 8.54 µg/m3 21.24 °C 80.53 % 1,009.61 mbar 1.68 m/s 352.95 Deg 0.62 µg/m3
2023-06-07 21:00 12.22 µg/m3 0.4 µg/m3 94.08 µg/m3 34.23 µg/m3 11.14 µg/m3 21.57 °C 80.39 % 1,009.43 mbar 1.86 m/s 179.62 Deg 0.85 µg/m3
2023-06-07 20:00 17.74 µg/m3 0.43 µg/m3 100.28 µg/m3 35.34 µg/m3 11.04 µg/m3 21.83 °C 77.16 % 1,008.97 mbar 2 m/s 95.1 Deg 0.85 µg/m3
2023-06-07 19:00 13.63 µg/m3 0.6 µg/m3 113.5 µg/m3 30.83 µg/m3 8.14 µg/m3 22.53 °C 69.46 % 1,008.64 mbar 2.41 m/s 14.37 Deg 1.11 µg/m3
2023-06-07 18:00 8.53 µg/m3 0.55 µg/m3 114.56 µg/m3 12.35 µg/m3 7.76 µg/m3 23.26 °C 61.8 % 1,008.31 mbar 2.9 m/s 25.4 Deg 0.97 µg/m3
2023-06-07 17:00 9.01 µg/m3 0.7 µg/m3 113.61 µg/m3 6.27 µg/m3 8.72 µg/m3 23.83 °C 58.78 % 1,008.39 mbar 2.68 m/s 97.95 Deg 2.27 µg/m3
2023-06-07 16:00 5.02 µg/m3 0.57 µg/m3 115.41 µg/m3 6.56 µg/m3 8.48 µg/m3 23.97 °C 60.29 % 1,008.63 mbar 2.96 m/s 24.67 Deg 0.96 µg/m3
2023-06-07 15:00 5.1 µg/m3 0.74 µg/m3 118.37 µg/m3 8.83 µg/m3 4.13 µg/m3 23.93 °C 58.07 % 1,008.97 mbar 3.01 m/s 26.83 Deg 0.88 µg/m3
2023-06-07 14:00 4.46 µg/m3 0.68 µg/m3 114.24 µg/m3 11.71 µg/m3 4.47 µg/m3 23.76 °C 59.83 % 1,009.21 mbar 3.39 m/s 32.62 Deg 0.89 µg/m3
2023-06-07 13:00 5.04 µg/m3 0.76 µg/m3 112.3 µg/m3 12.83 µg/m3 6.07 µg/m3 23.63 °C 59.16 % 1,009.35 mbar 3.97 m/s 29.87 Deg 0.98 µg/m3
2023-06-07 12:00 5.78 µg/m3 0.72 µg/m3 112.44 µg/m3 15.33 µg/m3 6.01 µg/m3 23.64 °C 61.4 % 1,009.38 mbar 3.88 m/s 18.82 Deg 1.04 µg/m3
2023-06-07 11:00 9.74 µg/m3 0.53 µg/m3 104.29 µg/m3 19.92 µg/m3 8.15 µg/m3 23.08 °C 68.03 % 1,009.40 mbar 3.34 m/s 24.6 Deg 1.85 µg/m3
2023-06-07 10:00 11.19 µg/m3 0.35 µg/m3 95.46 µg/m3 21.02 µg/m3 9.31 µg/m3 22.52 °C 75.59 % 1,009.14 mbar 3.15 m/s 29.03 Deg 3.15 µg/m3
2023-06-07 09:00 8.65 µg/m3 0.35 µg/m3 95.3 µg/m3 24.66 µg/m3 13.48 µg/m3 22.26 °C 78.2 % 1,009.04 mbar 2.5 m/s 21.18 Deg 1.59 µg/m3
2023-06-07 08:00 10.85 µg/m3 0.45 µg/m3 90.48 µg/m3 36.62 µg/m3 10.64 µg/m3 21.78 °C 79.1 % 1,009.32 mbar 2.44 m/s 25.25 Deg 2.24 µg/m3
2023-06-07 07:00 16.84 µg/m3 0.44 µg/m3 77.37 µg/m3 30.96 µg/m3 13.33 µg/m3 20.72 °C 88.69 % 1,009.22 mbar 2.08 m/s 176.08 Deg 3.13 µg/m3
2023-06-07 06:00 26.42 µg/m3 0.44 µg/m3 58.51 µg/m3 13.71 µg/m3 9.06 µg/m3 19.72 °C 96.63 % 1,008.91 mbar 1.53 m/s 180.22 Deg 2.64 µg/m3
2023-06-07 05:00 19.19 µg/m3 0.17 µg/m3 67.66 µg/m3 6.26 µg/m3 11.35 µg/m3 19.7 °C 98.26 % 1,008.72 mbar 1.6 m/s 95.48 Deg 1.01 µg/m3
2023-06-07 04:00 7.43 µg/m3 0.17 µg/m3 80.4 µg/m3 5.9 µg/m3 7.99 µg/m3 19.73 °C 97.75 % 1,008.42 mbar 2.06 m/s 19.45 Deg 0.53 µg/m3
2023-06-07 03:00 9.1 µg/m3 0.17 µg/m3 78.16 µg/m3 6.39 µg/m3 11.63 µg/m3 20.04 °C 94.75 % 1,008.56 mbar 2.62 m/s 23.25 Deg 0.49 µg/m3
2023-06-07 02:00 6.79 µg/m3 0.18 µg/m3 86.85 µg/m3 9.31 µg/m3 16.85 µg/m3 20.17 °C 93.65 % 1,008.86 mbar 2.97 m/s 28.82 Deg 0.49 µg/m3
2023-06-07 01:00 4.11 µg/m3 0.21 µg/m3 88.97 µg/m3 14.74 µg/m3 8.44 µg/m3 19.97 °C 98.17 % 1,009.07 mbar 2.95 m/s 33.58 Deg 0.47 µg/m3
2023-06-07 00:00 5.71 µg/m3 0.14 µg/m3 82.62 µg/m3 23.06 µg/m3 13.46 µg/m3 20.12 °C 99.9 % 1,009.30 mbar 2.59 m/s 32.4 Deg 0.56 µg/m3
2023-06-06 23:00 4.72 µg/m3 0.18 µg/m3 84.1 µg/m3 35.1 µg/m3 8.5 µg/m3 20.2 °C 99.9 % 1,009.46 mbar 2.87 m/s 36.27 Deg 0.57 µg/m3
2023-06-06 22:00 9.11 µg/m3 0.14 µg/m3 77.29 µg/m3 40.78 µg/m3 10.49 µg/m3 20.45 °C 99.87 % 1,009.25 mbar 2.6 m/s 27.22 Deg 0.73 µg/m3
2023-06-06 21:00 17.77 µg/m3 0.21 µg/m3 79.98 µg/m3 44.11 µg/m3 5.92 µg/m3 20.28 °C 97.32 % 1,008.88 mbar 2.51 m/s 29.22 Deg 0.9 µg/m3
2023-06-06 20:00 13.41 µg/m3 0.24 µg/m3 94.14 µg/m3 32.3 µg/m3 5.87 µg/m3 20.35 °C 91.33 % 1,008.32 mbar 2.37 m/s 43.18 Deg 0.98 µg/m3
2023-06-06 19:00 10.94 µg/m3 0.32 µg/m3 103.19 µg/m3 17.54 µg/m3 6.47 µg/m3 20.77 °C 80.52 % 1,007.96 mbar 2.28 m/s 35.03 Deg 0.67 µg/m3
2023-06-06 18:00 9.3 µg/m3 0.34 µg/m3 110 µg/m3 18.02 µg/m3 6.41 µg/m3 20.98 °C 76.68 % 1,007.74 mbar 2.38 m/s 117 Deg 1.31 µg/m3
2023-06-06 17:00 6.64 µg/m3 0.33 µg/m3 109.26 µg/m3 15.66 µg/m3 6.91 µg/m3 21.14 °C 76.03 % 1,007.57 mbar 2.61 m/s 98.28 Deg 0.93 µg/m3
2023-06-06 16:00 2.93 µg/m3 0.29 µg/m3 112.85 µg/m3 20.75 µg/m3 10.19 µg/m3 21.16 °C 78.86 % 1,007.75 mbar 4.57 m/s 204.6 Deg 0.73 µg/m3
2023-06-06 15:00 3.75 µg/m3 0.32 µg/m3 111.08 µg/m3 22.69 µg/m3 8.67 µg/m3 21.04 °C 84.79 % 1,008.04 mbar 4.52 m/s 158.68 Deg 0.71 µg/m3
2023-06-06 14:00 7.18 µg/m3 0.39 µg/m3 106.55 µg/m3 22.25 µg/m3 12.78 µg/m3 21.28 °C 82.38 % 1,008.31 mbar 3.68 m/s 260.95 Deg 0.94 µg/m3
2023-06-06 13:00 5.84 µg/m3 0.35 µg/m3 112.89 µg/m3 32.3 µg/m3 10.19 µg/m3 21.59 °C 79.6 % 1,008.59 mbar 3.18 m/s 94.55 Deg 1.39 µg/m3
2023-06-06 12:00 6.53 µg/m3 0.34 µg/m3 113.98 µg/m3 33.39 µg/m3 10.77 µg/m3 21.43 °C 84.62 % 1,008.69 mbar 3.33 m/s 270.27 Deg 0.97 µg/m3
2023-06-06 11:00 5 µg/m3 0.33 µg/m3 110.39 µg/m3 30.8 µg/m3 9.72 µg/m3 21.12 °C 85.67 % 1,008.77 mbar 3.41 m/s 243.75 Deg 0.78 µg/m3
2023-06-06 10:00 11.39 µg/m3 0.46 µg/m3 100.71 µg/m3 41.98 µg/m3 8.55 µg/m3 21.22 °C 85.38 % 1,008.78 mbar 2.36 m/s 221.23 Deg 1.48 µg/m3
2023-06-06 09:00 6.49 µg/m3 0.39 µg/m3 102 µg/m3 43.41 µg/m3 10.13 µg/m3 20.96 °C 85.57 % 1,008.99 mbar 1.3 m/s 213.05 Deg 2.66 µg/m3
2023-06-06 08:00 2.2 µg/m3 0.23 µg/m3 105.53 µg/m3 27.81 µg/m3 7.17 µg/m3 20.72 °C 83.8 % 1,007.73 mbar 2.95 m/s 132.83 Deg 0.46 µg/m3
2023-06-06 07:00 1.99 µg/m3 0.19 µg/m3 107.41 µg/m3 20.11 µg/m3 9.32 µg/m3 20.32 °C 80.52 % 1,006.36 mbar 5.47 m/s 135.05 Deg 0.46 µg/m3
2023-06-06 06:00 3.4 µg/m3 0.24 µg/m3 104.33 µg/m3 20.92 µg/m3 6.45 µg/m3 19.94 °C 85.7 % 1,005.73 mbar 5.24 m/s 201.6 Deg 0.49 µg/m3
2023-06-06 05:00 1.69 µg/m3 0.24 µg/m3 106.15 µg/m3 32.88 µg/m3 9.33 µg/m3 19.71 °C 87 % 1,006.17 mbar 5.79 m/s 169.52 Deg 0.42 µg/m3
2023-06-06 04:00 1.67 µg/m3 0.28 µg/m3 106.34 µg/m3 29.49 µg/m3 11.88 µg/m3 20.02 °C 86.84 % 1,006.42 mbar 6.56 m/s 159.48 Deg 0.43 µg/m3
2023-06-06 03:00 1.48 µg/m3 0.23 µg/m3 104.88 µg/m3 41.34 µg/m3 17.48 µg/m3 20.31 °C 87.61 % 1,006.64 mbar 6.14 m/s 153.2 Deg 0.44 µg/m3
2023-06-06 02:00 4.55 µg/m3 0.25 µg/m3 98.56 µg/m3 29.61 µg/m3 15.33 µg/m3 20.74 °C 88.78 % 1,007.57 mbar 2.22 m/s 125.87 Deg 0.47 µg/m3
2023-06-06 01:00 1.63 µg/m3 0.29 µg/m3 105.73 µg/m3 23.1 µg/m3 10.18 µg/m3 20.91 °C 84.84 % 1,006.39 mbar 2.48 m/s 309.45 Deg 0.42 µg/m3
2023-06-06 00:00 1.6 µg/m3 0.31 µg/m3 107.64 µg/m3 16.6 µg/m3 13.02 µg/m3 21.11 °C 82.61 % 1,005.44 mbar 5.36 m/s 188.75 Deg 0.41 µg/m3
2023-06-05 23:00 3.78 µg/m3 0.23 µg/m3 102.88 µg/m3 22.02 µg/m3 7.41 µg/m3 20.57 °C 90.17 % 1,004.55 mbar 5.08 m/s 153.13 Deg 0.46 µg/m3
2023-06-05 22:00 2.22 µg/m3 0.2 µg/m3 101.09 µg/m3 39.1 µg/m3 9.53 µg/m3 20.23 °C 96.48 % 1,005.20 mbar 7.83 m/s 229.42 Deg 0.43 µg/m3
2023-06-05 21:00 2.46 µg/m3 0.23 µg/m3 100.82 µg/m3 41.7 µg/m3 13.86 µg/m3 20.57 °C 97.57 % 1,007.76 mbar 4.43 m/s 147.63 Deg 0.47 µg/m3
2023-06-05 20:00 6.52 µg/m3 0.37 µg/m3 105.39 µg/m3 34.51 µg/m3 13.6 µg/m3 20.76 °C 95.48 % 1,006.07 mbar 3.79 m/s 258.57 Deg 0.6 µg/m3
2023-06-05 19:00 9.06 µg/m3 1.14 µg/m3 108.41 µg/m3 29.71 µg/m3 8.5 µg/m3 21.01 °C 92.95 % 1,005.90 mbar 3.51 m/s 251.28 Deg 0.64 µg/m3
2023-06-05 18:00 6.87 µg/m3 0.38 µg/m3 113.28 µg/m3 29.96 µg/m3 7.68 µg/m3 21.3 °C 90.4 % 1,006.14 mbar 3.59 m/s 238.05 Deg 0.81 µg/m3
2023-06-05 17:00 8.6 µg/m3 0.44 µg/m3 108.81 µg/m3 20.44 µg/m3 4.81 µg/m3 21.41 °C 89.62 % 1,006.30 mbar 3.66 m/s 123.23 Deg 1.25 µg/m3
2023-06-05 16:00 3.93 µg/m3 0.26 µg/m3 107.74 µg/m3 16.74 µg/m3 4.53 µg/m3 21.8 °C 88.2 % 1,006.15 mbar 4.47 m/s 262.84 Deg 0.67 µg/m3
2023-06-05 15:00 3.62 µg/m3 0.22 µg/m3 95.94 µg/m3 19.82 µg/m3 5.29 µg/m3 21.79 °C 90.33 % 1,006.13 mbar 5.48 m/s 211.07 Deg 0.73 µg/m3
2023-06-05 14:00 3.88 µg/m3 0.16 µg/m3 90.87 µg/m3 22.77 µg/m3 7.7 µg/m3 21.71 °C 92.38 % 1,006.64 mbar 4.07 m/s 255.57 Deg 0.87 µg/m3
2023-06-05 13:00 4.83 µg/m3 0.14 µg/m3 88.54 µg/m3 26.84 µg/m3 12.52 µg/m3 21.99 °C 91.99 % 1,006.88 mbar 4.49 m/s 164.02 Deg 1.06 µg/m3
2023-06-05 12:00 5.59 µg/m3 0.13 µg/m3 82.82 µg/m3 22.6 µg/m3 11.37 µg/m3 21.1 °C 96.98 % 1,007.16 mbar 4.95 m/s 269.38 Deg 1.03 µg/m3
2023-06-05 11:00 5.9 µg/m3 0.11 µg/m3 82.42 µg/m3 23.83 µg/m3 10.58 µg/m3 20.73 °C 98.34 % 1,007.67 mbar 4.57 m/s 154.15 Deg 0.85 µg/m3
2023-06-05 10:00 5.42 µg/m3 0.12 µg/m3 82.76 µg/m3 35.09 µg/m3 10.39 µg/m3 20.99 °C 96.93 % 1,007.47 mbar 4.94 m/s 217.57 Deg 0.89 µg/m3
2023-06-05 09:00 4.48 µg/m3 0.12 µg/m3 80.69 µg/m3 31.7 µg/m3 9.06 µg/m3 20.45 °C 99.87 % 1,006.62 mbar 7.39 m/s 124.35 Deg 0.64 µg/m3
2023-06-05 08:00 9.37 µg/m3 0.25 µg/m3 65.34 µg/m3 30.45 µg/m3 12.27 µg/m3 20.27 °C 100 % 1,007.10 mbar 4.63 m/s 241.57 Deg 0.81 µg/m3
2023-06-05 07:00 6.07 µg/m3 0.1 µg/m3 64.79 µg/m3 43.62 µg/m3 11.53 µg/m3 20.21 °C 100 % 1,007.57 mbar 3.69 m/s 199.45 Deg 0.66 µg/m3
2023-06-05 06:00 4.18 µg/m3 0.05 µg/m3 71 µg/m3 22.84 µg/m3 7.68 µg/m3 20.28 °C 98.45 % 1,007.54 mbar 4.01 m/s 155.38 Deg 0.47 µg/m3
2023-06-05 05:00 7.27 µg/m3 0.09 µg/m3 69.12 µg/m3 15.25 µg/m3 8.29 µg/m3 20.22 °C 97.85 % 1,007.26 mbar 3.66 m/s 125.98 Deg 0.48 µg/m3
2023-06-05 04:00 2.4 µg/m3 0.11 µg/m3 75.64 µg/m3 17.85 µg/m3 7.92 µg/m3 20.18 °C 98.78 % 1,006.99 mbar 3.09 m/s 187.03 Deg 0.42 µg/m3
2023-06-05 03:00 1.34 µg/m3 0.02 µg/m3 77.3 µg/m3 25.34 µg/m3 7.39 µg/m3 20.19 °C 98.31 % 1,007.67 mbar 4.36 m/s 139.17 Deg 0.42 µg/m3
2023-06-05 02:00 2.45 µg/m3 0.05 µg/m3 74.5 µg/m3 21.8 µg/m3 10.74 µg/m3 20.19 °C 99.08 % 1,008.22 mbar 4.16 m/s 119.15 Deg 0.42 µg/m3
2023-06-05 01:00 0.84 µg/m3 0.03 µg/m3 76.09 µg/m3 16.67 µg/m3 7.81 µg/m3 20.32 °C 98.12 % 1,008.35 mbar 4.76 m/s 128.32 Deg 0.41 µg/m3
2023-06-05 00:00 3.92 µg/m3 0.04 µg/m3 79.21 µg/m3 21.93 µg/m3 5.97 µg/m3 20.36 °C 96.24 % 1,008.39 mbar 4.97 m/s 114.38 Deg 0.45 µg/m3
2023-06-04 23:00 3.26 µg/m3 0.03 µg/m3 74.97 µg/m3 26.07 µg/m3 8.3 µg/m3 20.41 °C 95.87 % 1,008.16 mbar 5.23 m/s 118.92 Deg 0.47 µg/m3
2023-06-04 22:00 2.37 µg/m3 0.09 µg/m3 86.33 µg/m3 26.27 µg/m3 9.91 µg/m3 20.46 °C 95.83 % 1,008.10 mbar 4.64 m/s 225.7 Deg 0.45 µg/m3
2023-06-04 21:00 1.72 µg/m3 0.19 µg/m3 75.81 µg/m3 20.66 µg/m3 15.9 µg/m3 20.52 °C 95.64 % 1,008.23 mbar 4.56 m/s 168.82 Deg 0.46 µg/m3
2023-06-04 20:00 1.18 µg/m3 0.03 µg/m3 77.35 µg/m3 21.23 µg/m3 11.55 µg/m3 20.62 °C 94.66 % 1,008.34 mbar 5.12 m/s 116.1 Deg 0.41 µg/m3
2023-06-04 19:00 1.2 µg/m3 0.05 µg/m3 72.46 µg/m3 16.27 µg/m3 6.73 µg/m3 20.91 °C 93.94 % 1,008.26 mbar 5.91 m/s 123.17 Deg 0.44 µg/m3
2023-06-04 18:00 1.5 µg/m3 0.08 µg/m3 75.83 µg/m3 19.39 µg/m3 5.78 µg/m3 21.16 °C 91.35 % 1,007.83 mbar 6.05 m/s 144.35 Deg 0.43 µg/m3
2023-06-04 17:00 0.81 µg/m3 0.07 µg/m3 78.16 µg/m3 12.57 µg/m3 4.13 µg/m3 21.31 °C 89.48 % 1,008.51 mbar 6.35 m/s 113.83 Deg 0.43 µg/m3
2023-06-04 16:00 0.74 µg/m3 0.08 µg/m3 73.7 µg/m3 10.65 µg/m3 5.38 µg/m3 21.53 °C 88.23 % 1,009.46 mbar 5.96 m/s 130.4 Deg 0.41 µg/m3
2023-06-04 15:00 0.57 µg/m3 0.06 µg/m3 73.32 µg/m3 15.88 µg/m3 4.77 µg/m3 22.06 °C 86.03 % 1,009.55 mbar 5.31 m/s 141.6 Deg 0.43 µg/m3
2023-06-04 14:00 0.63 µg/m3 0.06 µg/m3 74.38 µg/m3 12.11 µg/m3 4.92 µg/m3 22.36 °C 84.66 % 1,009.77 mbar 4.61 m/s 173.25 Deg 0.46 µg/m3
2023-06-04 13:00 1.17 µg/m3 0.01 µg/m3 76.9 µg/m3 10.63 µg/m3 6.33 µg/m3 22.4 °C 84.8 % 1,009.46 mbar 5.51 m/s 145.63 Deg 0.55 µg/m3
2023-06-04 12:00 2.72 µg/m3 0.02 µg/m3 77.81 µg/m3 10.66 µg/m3 5.8 µg/m3 22.14 °C 86.22 % 1,009.87 mbar 4.51 m/s 180.62 Deg 0.86 µg/m3
2023-06-04 11:00 4.38 µg/m3 0.08 µg/m3 75.01 µg/m3 11.53 µg/m3 8.12 µg/m3 21.93 °C 86.91 % 1,010.06 mbar 5.26 m/s 125.28 Deg 1.41 µg/m3
2023-06-04 10:00 2.06 µg/m3 0.1 µg/m3 78.4 µg/m3 13.04 µg/m3 9.14 µg/m3 21.79 °C 86.08 % 1,010.12 mbar 4.52 m/s 153.97 Deg 0.72 µg/m3
2023-06-04 09:00 1.25 µg/m3 0.02 µg/m3 76.46 µg/m3 17.6 µg/m3 11.14 µg/m3 21.58 °C 88.35 % 1,010.03 mbar 4.28 m/s 159.38 Deg 0.56 µg/m3
2023-06-04 08:00 0.97 µg/m3 0.05 µg/m3 76.26 µg/m3 26.08 µg/m3 9.5 µg/m3 21.18 °C 89.38 % 1,009.55 mbar 4.76 m/s 143.9 Deg 0.53 µg/m3
2023-06-04 07:00 2.24 µg/m3 0.09 µg/m3 73.82 µg/m3 30.54 µg/m3 11.41 µg/m3 20.7 °C 91.23 % 1,009.05 mbar 4.31 m/s 144.18 Deg 0.62 µg/m3
2023-06-04 06:00 2.46 µg/m3 0.13 µg/m3 70.46 µg/m3 20.48 µg/m3 8.79 µg/m3 19.9 °C 96.06 % 1,008.95 mbar 3.04 m/s 143.73 Deg 0.54 µg/m3
2023-06-04 05:00 1.62 µg/m3 0.28 µg/m3 64.82 µg/m3 19.05 µg/m3 10.88 µg/m3 19.52 °C 98.46 % 1,008.99 mbar 2.03 m/s 145.35 Deg 0.49 µg/m3
2023-06-04 04:00 1.48 µg/m3 0.15 µg/m3 64.73 µg/m3 24.18 µg/m3 11.59 µg/m3 19.4 °C 98.71 % 1,008.94 mbar 1.7 m/s 144.88 Deg 0.47 µg/m3
2023-06-04 03:00 5.6 µg/m3 0.03 µg/m3 60.94 µg/m3 20.26 µg/m3 18.12 µg/m3 19.5 °C 97.84 % 1,009.06 mbar 1.32 m/s 143.97 Deg 0.51 µg/m3
2023-06-04 02:00 2.84 µg/m3 0.06 µg/m3 62.73 µg/m3 29.25 µg/m3 11.61 µg/m3 19.61 °C 96.47 % 1,009.23 mbar 1.32 m/s 144.23 Deg 0.51 µg/m3
2023-06-04 01:00 6.72 µg/m3 0.15 µg/m3 56.7 µg/m3 33.92 µg/m3 13.14 µg/m3 19.71 °C 95.3 % 1,009.71 mbar 0.95 m/s 151.32 Deg 0.49 µg/m3
2023-06-04 00:00 6.58 µg/m3 0.07 µg/m3 58.77 µg/m3 33.74 µg/m3 19.18 µg/m3 19.98 °C 93.91 % 1,010.21 mbar 0.84 m/s 183.52 Deg 0.47 µg/m3
2023-06-03 23:00 4.14 µg/m3 0.13 µg/m3 66.3 µg/m3 31.83 µg/m3 14.29 µg/m3 20.09 °C 93.94 % 1,010.17 mbar 0.72 m/s 164.28 Deg 0.98 µg/m3
2023-06-03 22:00 2.74 µg/m3 0.15 µg/m3 66.91 µg/m3 28.61 µg/m3 15.99 µg/m3 20.31 °C 90.98 % 1,009.98 mbar 0.87 m/s 141.8 Deg 0.46 µg/m3
2023-06-03 21:00 4.53 µg/m3 0.12 µg/m3 67.86 µg/m3 25.73 µg/m3 14.21 µg/m3 20.62 °C 88.38 % 1,009.77 mbar 0.86 m/s 171.8 Deg 0.44 µg/m3
2023-06-03 20:00 3.98 µg/m3 0.1 µg/m3 75.03 µg/m3 22.03 µg/m3 7.96 µg/m3 20.89 °C 87.16 % 1,009.40 mbar 1.26 m/s 148.47 Deg 0.44 µg/m3
2023-06-03 19:00 4.42 µg/m3 0.11 µg/m3 83.2 µg/m3 24.84 µg/m3 6.84 µg/m3 21.19 °C 85.32 % 1,009.00 mbar 1.5 m/s 140.08 Deg 0.47 µg/m3
2023-06-03 18:00 2.9 µg/m3 0.06 µg/m3 91.37 µg/m3 26.74 µg/m3 6.76 µg/m3 21.81 °C 82.44 % 1,008.73 mbar 1.65 m/s 198.85 Deg 0.49 µg/m3
2023-06-03 17:00 4.77 µg/m3 0.09 µg/m3 86.63 µg/m3 20.84 µg/m3 4.35 µg/m3 22.36 °C 79.78 % 1,008.76 mbar 2.02 m/s 135.05 Deg 0.76 µg/m3
2023-06-03 16:00 5.42 µg/m3 0.1 µg/m3 85.84 µg/m3 14.51 µg/m3 5.82 µg/m3 22.73 °C 77.18 % 1,009.00 mbar 2.37 m/s 136.88 Deg 0.94 µg/m3
2023-06-03 15:00 2.95 µg/m3 0.11 µg/m3 76.26 µg/m3 14.65 µg/m3 6 µg/m3 23.27 °C 73.06 % 1,009.38 mbar 2.65 m/s 225.5 Deg 0.82 µg/m3
2023-06-03 14:00 3.59 µg/m3 0.1 µg/m3 76.26 µg/m3 12.69 µg/m3 6.78 µg/m3 22.99 °C 74.43 % 1,009.60 mbar 3.26 m/s 196.62 Deg 0.98 µg/m3
2023-06-03 13:00 8.25 µg/m3 0.13 µg/m3 73.04 µg/m3 12.75 µg/m3 8.56 µg/m3 22.59 °C 77.31 % 1,009.52 mbar 4.22 m/s 177.27 Deg 2.42 µg/m3
2023-06-03 12:00 4.79 µg/m3 0.06 µg/m3 79.97 µg/m3 15.64 µg/m3 10.92 µg/m3 22.78 °C 74.58 % 1,009.71 mbar 4.3 m/s 183.22 Deg 1.35 µg/m3
2023-06-03 11:00 2.7 µg/m3 0.08 µg/m3 81.35 µg/m3 24.76 µg/m3 7.62 µg/m3 22.58 °C 75.68 % 1,009.73 mbar 3.19 m/s 203.1 Deg 0.86 µg/m3
2023-06-03 10:00 2.93 µg/m3 0.17 µg/m3 81.39 µg/m3 22.65 µg/m3 9.75 µg/m3 22.02 °C 77.94 % 1,009.44 mbar 2.83 m/s 212.2 Deg 0.89 µg/m3
2023-06-03 09:00 4.59 µg/m3 0.13 µg/m3 82.12 µg/m3 22.04 µg/m3 9.17 µg/m3 21.82 °C 78.68 % 1,009.00 mbar 2.41 m/s 225.52 Deg 1.16 µg/m3
2023-06-03 08:00 7.02 µg/m3 0.14 µg/m3 80.31 µg/m3 23.2 µg/m3 5.99 µg/m3 21.19 °C 81.51 % 1,008.75 mbar 2.11 m/s 188.48 Deg 1.48 µg/m3
2023-06-03 07:00 11.87 µg/m3 0.12 µg/m3 73.63 µg/m3 28.32 µg/m3 7.55 µg/m3 20.32 °C 89.02 % 1,008.48 mbar 0.88 m/s 235.15 Deg 1.9 µg/m3
2023-06-03 06:00 25.99 µg/m3 0.27 µg/m3 49.4 µg/m3 23.28 µg/m3 9.2 µg/m3 19.31 °C 95.29 % 1,008.39 mbar 0.61 m/s 267.22 Deg 2.29 µg/m3
2023-06-03 05:00 14.71 µg/m3 0.14 µg/m3 58.39 µg/m3 14.74 µg/m3 13.46 µg/m3 19.09 °C 95.08 % 1,008.12 mbar 0.64 m/s 301.12 Deg 0.83 µg/m3
2023-06-03 04:00 7.3 µg/m3 0.11 µg/m3 64.74 µg/m3 13.63 µg/m3 9.56 µg/m3 19.18 °C 93.48 % 1,007.77 mbar 0.7 m/s 292.2 Deg 0.51 µg/m3
2023-06-03 03:00 9.7 µg/m3 0.17 µg/m3 62.98 µg/m3 16.01 µg/m3 6.84 µg/m3 19.3 °C 92.79 % 1,007.72 mbar 0.76 m/s 311.97 Deg 0.62 µg/m3
2023-06-03 02:00 6.5 µg/m3 0.02 µg/m3 67.04 µg/m3 16.4 µg/m3 7.72 µg/m3 19.47 °C 92.78 % 1,007.73 mbar 0.73 m/s 278.83 Deg 0.46 µg/m3
2023-06-03 01:00 14.73 µg/m3 0.08 µg/m3 57.31 µg/m3 21.09 µg/m3 9.84 µg/m3 19.62 °C 91.06 % 1,007.91 mbar 0.96 m/s 254.05 Deg 0.53 µg/m3
2023-06-03 00:00 8.94 µg/m3 0.07 µg/m3 68.17 µg/m3 20.67 µg/m3 7.36 µg/m3 19.96 °C 88.94 % 1,008.17 mbar 0.64 m/s 281.07 Deg 0.48 µg/m3
2023-06-02 23:00 7.44 µg/m3 0.08 µg/m3 72.51 µg/m3 21.26 µg/m3 7.44 µg/m3 20.05 °C 89.74 % 1,008.41 mbar 0.67 m/s 271.54 Deg 0.46 µg/m3
2023-06-02 22:00 10.34 µg/m3 0.06 µg/m3 66.17 µg/m3 21.26 µg/m3 9.34 µg/m3 20.07 °C 89.66 % 1,008.56 mbar 0.82 m/s 245.29 Deg 0.53 µg/m3
2023-06-02 21:00 7.43 µg/m3 0.13 µg/m3 64.93 µg/m3 22.6 µg/m3 8.38 µg/m3 20.07 °C 87.43 % 1,008.09 mbar 1.09 m/s 214.37 Deg 0.5 µg/m3
2023-06-02 20:00 6.27 µg/m3 0.24 µg/m3 76.03 µg/m3 29.12 µg/m3 7.18 µg/m3 20.49 °C 85.01 % 1,007.53 mbar 1.51 m/s 226.18 Deg 0.6 µg/m3
2023-06-02 19:00 5.28 µg/m3 0.09 µg/m3 81.89 µg/m3 18.77 µg/m3 9.24 µg/m3 21.01 °C 81.64 % 1,007.14 mbar 1.91 m/s 216.62 Deg 0.65 µg/m3
2023-06-02 18:00 3.67 µg/m3 0.08 µg/m3 84.9 µg/m3 19.51 µg/m3 11.13 µg/m3 21.57 °C 78.56 % 1,006.99 mbar 2.5 m/s 225.81 Deg 0.7 µg/m3
2023-06-02 17:00 4.15 µg/m3 0.11 µg/m3 87.67 µg/m3 18.73 µg/m3 8.17 µg/m3 21.98 °C 77.34 % 1,007.27 mbar 3.07 m/s 224.85 Deg 0.91 µg/m3
2023-06-02 16:00 3.57 µg/m3 0.15 µg/m3 99.04 µg/m3 12.57 µg/m3 5.68 µg/m3 22.35 °C 73.64 % 1,007.40 mbar 3.65 m/s 216.1 Deg 0.82 µg/m3
2023-06-02 15:00 4.13 µg/m3 0.22 µg/m3 103.21 µg/m3 8.49 µg/m3 5.35 µg/m3 22.83 °C 69.59 % 1,007.68 mbar 3.44 m/s 211.43 Deg 0.82 µg/m3
2023-06-02 14:00 5.54 µg/m3 0.15 µg/m3 96.79 µg/m3 7.66 µg/m3 5.26 µg/m3 22.97 °C 70.63 % 1,007.99 mbar 3.83 m/s 215.82 Deg 1.66 µg/m3
2023-06-02 13:00 7.87 µg/m3 0.16 µg/m3 100.83 µg/m3 10.15 µg/m3 5 µg/m3 22.48 °C 74.53 % 1,007.86 mbar 4.84 m/s 176.07 Deg 1.47 µg/m3
2023-06-02 12:00 7.21 µg/m3 0.18 µg/m3 99.32 µg/m3 14.32 µg/m3 6.33 µg/m3 22.23 °C 77.32 % 1,007.89 mbar 2.87 m/s 168.05 Deg 1.35 µg/m3
2023-06-02 11:00 3.65 µg/m3 0.13 µg/m3 98.23 µg/m3 23.95 µg/m3 7.3 µg/m3 21.71 °C 80.57 % 1,007.90 mbar 2.41 m/s 173.9 Deg 0.7 µg/m3
2023-06-02 10:00 8.32 µg/m3 5.97 µg/m3 87.64 µg/m3 24.91 µg/m3 8.92 µg/m3 21.42 °C 82.42 % 1,007.97 mbar 1.75 m/s 220.85 Deg 1.13 µg/m3
2023-06-02 09:00 19.05 µg/m3 0.29 µg/m3 74.22 µg/m3 36.14 µg/m3 13.78 µg/m3 21.2 °C 81.04 % 1,007.81 mbar 1.16 m/s 200.79 Deg 4.16 µg/m3
2023-06-02 08:00 22.77 µg/m3 0.26 µg/m3 64.39 µg/m3 56.07 µg/m3 21.22 µg/m3 21.23 °C 82.23 % 1,007.53 mbar 1 m/s 146.93 Deg 4.31 µg/m3
2023-06-02 07:00 46.29 µg/m3 0.61 µg/m3 32.5 µg/m3 46.96 µg/m3 12.72 µg/m3 20.16 °C 89.46 % 1,007.23 mbar 1.13 m/s 183.58 Deg 16.06 µg/m3
2023-06-02 06:00 51.08 µg/m3 0.7 µg/m3 12.24 µg/m3 36.3 µg/m3 15 µg/m3 19.22 °C 93.61 % 1,007.16 mbar 0.76 m/s 333.85 Deg 22.7 µg/m3
2023-06-02 05:00 30.31 µg/m3 0.15 µg/m3 30.71 µg/m3 18.8 µg/m3 12.95 µg/m3 18.81 °C 96.03 % 1,006.86 mbar 0.92 m/s 320.2 Deg 3.57 µg/m3
2023-06-02 04:00 15.32 µg/m3 0.09 µg/m3 44.64 µg/m3 16.58 µg/m3 7.45 µg/m3 18.91 °C 95.67 % 1,006.81 mbar 1.06 m/s 294.8 Deg 0.88 µg/m3
2023-06-02 03:00 17.75 µg/m3 0.05 µg/m3 50.15 µg/m3 12.71 µg/m3 9.48 µg/m3 19.14 °C 96.64 % 1,006.76 mbar 0.85 m/s 323.32 Deg 0.71 µg/m3
2023-06-02 02:00 13.44 µg/m3 0.02 µg/m3 58.26 µg/m3 10.46 µg/m3 8.52 µg/m3 19.5 °C 96.61 % 1,007.00 mbar 0.89 m/s 9.88 Deg 0.51 µg/m3
2023-06-02 01:00 11.33 µg/m3 0.15 µg/m3 60.59 µg/m3 12.2 µg/m3 8.79 µg/m3 19.59 °C 96.73 % 1,007.33 mbar 0.73 m/s 21.4 Deg 0.46 µg/m3
2023-06-02 00:00 5.54 µg/m3 0.04 µg/m3 73.06 µg/m3 16.81 µg/m3 6.08 µg/m3 19.57 °C 96.44 % 1,007.64 mbar 0.36 m/s 128.41 Deg 0.44 µg/m3
2023-06-01 23:00 7.43 µg/m3 0.01 µg/m3 72.83 µg/m3 19.6 µg/m3 6.61 µg/m3 19.6 °C 95.76 % 1,007.72 mbar 0.79 m/s 146.43 Deg 0.42 µg/m3
2023-06-01 22:00 3.76 µg/m3 0.07 µg/m3 82.87 µg/m3 31.67 µg/m3 8.29 µg/m3 19.59 °C 96.36 % 1,007.64 mbar 0.85 m/s 183.77 Deg 0.42 µg/m3
2023-06-01 21:00 2.82 µg/m3 0.06 µg/m3 85.68 µg/m3 22.88 µg/m3 9.52 µg/m3 19.84 °C 95.08 % 1,007.60 mbar 1.43 m/s 108.93 Deg 0.4 µg/m3
2023-06-01 20:00 4.6 µg/m3 0.11 µg/m3 90.05 µg/m3 15.79 µg/m3 9.68 µg/m3 20.16 °C 92.3 % 1,006.95 mbar 1.9 m/s 118.35 Deg 0.42 µg/m3
2023-06-01 19:00 2.37 µg/m3 0.11 µg/m3 88.34 µg/m3 22.74 µg/m3 9.31 µg/m3 20.75 °C 88.26 % 1,006.52 mbar 2.42 m/s 129.33 Deg 0.41 µg/m3
2023-06-01 18:00 1.85 µg/m3 0.09 µg/m3 94.38 µg/m3 19.81 µg/m3 11.85 µg/m3 21.27 °C 87.59 % 1,006.59 mbar 2.48 m/s 162.03 Deg 0.55 µg/m3
2023-06-01 17:00 0.95 µg/m3 0.09 µg/m3 95.95 µg/m3 23.83 µg/m3 5.57 µg/m3 21.75 °C 85.43 % 1,006.62 mbar 2.85 m/s 158.73 Deg 0.42 µg/m3
2023-06-01 16:00 0.99 µg/m3 0.06 µg/m3 97.04 µg/m3 14.74 µg/m3 6.83 µg/m3 21.96 °C 84.43 % 1,006.70 mbar 3.08 m/s 210.15 Deg 0.46 µg/m3
2023-06-01 15:00 1.53 µg/m3 0.12 µg/m3 100.61 µg/m3 9.23 µg/m3 5.97 µg/m3 21.98 °C 77.56 % 1,006.85 mbar 5.16 m/s 127.43 Deg 0.52 µg/m3
2023-06-01 14:00 1.31 µg/m3 0.09 µg/m3 104.5 µg/m3 11.91 µg/m3 8.34 µg/m3 21.64 °C 84.45 % 1,007.28 mbar 5.15 m/s 134.95 Deg 0.51 µg/m3
2023-06-01 13:00 1.24 µg/m3 0.06 µg/m3 104.75 µg/m3 15.96 µg/m3 12.76 µg/m3 21.45 °C 86.13 % 1,007.52 mbar 5.14 m/s 134.28 Deg 0.46 µg/m3
2023-06-01 12:00 1.65 µg/m3 0.06 µg/m3 107.36 µg/m3 20.44 µg/m3 9.07 µg/m3 21.37 °C 89 % 1,007.81 mbar 4.16 m/s 189.37 Deg 0.57 µg/m3
2023-06-01 11:00 2.19 µg/m3 0.08 µg/m3 107.88 µg/m3 27.08 µg/m3 8.37 µg/m3 21.65 °C 87.65 % 1,007.95 mbar 3.47 m/s 213.38 Deg 0.62 µg/m3
2023-06-01 10:00 3.85 µg/m3 0.09 µg/m3 101.37 µg/m3 21 µg/m3 9.7 µg/m3 21.47 °C 87.91 % 1,007.94 mbar 3.57 m/s 220.92 Deg 0.88 µg/m3
2023-06-01 09:00 5.19 µg/m3 0.2 µg/m3 96.32 µg/m3 29.92 µg/m3 6.72 µg/m3 21.14 °C 89.28 % 1,007.63 mbar 4.23 m/s 150.28 Deg 1 µg/m3
2023-06-01 08:00 7.3 µg/m3 0.24 µg/m3 89.53 µg/m3 27.77 µg/m3 7.87 µg/m3 20.82 °C 91 % 1,007.53 mbar 3.02 m/s 230.87 Deg 1.33 µg/m3
2023-06-01 07:00 15.34 µg/m3 0.18 µg/m3 77.86 µg/m3 32.25 µg/m3 9.64 µg/m3 20.07 °C 94.63 % 1,007.20 mbar 2.21 m/s 103.95 Deg 1.88 µg/m3
2023-06-01 06:00 13.82 µg/m3 0.16 µg/m3 78.2 µg/m3 21.48 µg/m3 10.14 µg/m3 19.58 °C 97.61 % 1,006.84 mbar 1.76 m/s 98.02 Deg 1.23 µg/m3
2023-06-01 05:00 11.61 µg/m3 0.11 µg/m3 79.35 µg/m3 15.13 µg/m3 9.75 µg/m3 19.39 °C 98.79 % 1,006.63 mbar 1.83 m/s 43.3 Deg 0.67 µg/m3
2023-06-01 04:00 3.94 µg/m3 0.07 µg/m3 88.01 µg/m3 12.83 µg/m3 12.08 µg/m3 19.38 °C 99.13 % 1,006.42 mbar 1.69 m/s 41.98 Deg 0.44 µg/m3
2023-06-01 03:00 2.02 µg/m3 0.02 µg/m3 93.18 µg/m3 9.68 µg/m3 11.28 µg/m3 19.53 °C 99.13 % 1,006.42 mbar 1.92 m/s 265.88 Deg 0.4 µg/m3
2023-06-01 02:00 7.02 µg/m3 0.07 µg/m3 86.54 µg/m3 9.95 µg/m3 15.03 µg/m3 19.61 °C 98.71 % 1,006.70 mbar 1.73 m/s 175.33 Deg 0.42 µg/m3
2023-06-01 01:00 2.94 µg/m3 0.07 µg/m3 88.11 µg/m3 13.46 µg/m3 6.96 µg/m3 19.66 °C 98.59 % 1,007.00 mbar 1.52 m/s 290.82 Deg 0.39 µg/m3
2023-06-01 00:00 3.41 µg/m3 0.04 µg/m3 87.78 µg/m3 20.83 µg/m3 6.2 µg/m3 19.78 °C 98.05 % 1,007.17 mbar 1.95 m/s 227.22 Deg 0.46 µg/m3
2023-05-31 23:00 2.75 µg/m3 0.04 µg/m3 84.07 µg/m3 24.74 µg/m3 8.93 µg/m3 19.81 °C 99.37 % 1,007.02 mbar 2.02 m/s 226.52 Deg 0.4 µg/m3
2023-05-31 22:00 3.82 µg/m3 0.11 µg/m3 82.56 µg/m3 28.38 µg/m3 10.87 µg/m3 20.07 °C 99.45 % 1,007.03 mbar 2.25 m/s 41.55 Deg 0.55 µg/m3
2023-05-31 21:00 3.85 µg/m3 0.08 µg/m3 81.52 µg/m3 26.94 µg/m3 5.93 µg/m3 20.1 °C 98.16 % 1,006.82 mbar 2.02 m/s 182.03 Deg 0.68 µg/m3
2023-05-31 20:00 6.21 µg/m3 0.11 µg/m3 80.11 µg/m3 19.96 µg/m3 5.51 µg/m3 20.22 °C 96.23 % 1,006.46 mbar 2.23 m/s 180.73 Deg 1.02 µg/m3
2023-05-31 19:00 6.44 µg/m3 0.25 µg/m3 79.97 µg/m3 17.19 µg/m3 6.85 µg/m3 20.57 °C 93.83 % 1,006.23 mbar 2.4 m/s 28.7 Deg 0.81 µg/m3
2023-05-31 18:00 8.32 µg/m3 0.18 µg/m3 82.72 µg/m3 17.31 µg/m3 7.09 µg/m3 20.9 °C 91.69 % 1,005.85 mbar 2.74 m/s 97.57 Deg 1.44 µg/m3
2023-05-31 17:00 4.75 µg/m3 0.16 µg/m3 85.28 µg/m3 24.62 µg/m3 7.94 µg/m3 21.58 °C 88.21 % 1,005.78 mbar 2.94 m/s 28.23 Deg 0.95 µg/m3
2023-05-31 16:00 3.31 µg/m3 0.16 µg/m3 92.4 µg/m3 18.45 µg/m3 4.46 µg/m3 21.87 °C 86.75 % 1,005.84 mbar 3.42 m/s 170.98 Deg 0.83 µg/m3
2023-05-31 15:00 7.76 µg/m3 0.16 µg/m3 99.62 µg/m3 9.72 µg/m3 4.97 µg/m3 22.11 °C 83.72 % 1,006.07 mbar 3.4 m/s 99.92 Deg 1.63 µg/m3
2023-05-31 14:00 6.36 µg/m3 0.12 µg/m3 91.59 µg/m3 7.91 µg/m3 5.64 µg/m3 22.12 °C 84.83 % 1,006.25 mbar 2.86 m/s 247.12 Deg 1.43 µg/m3
2023-05-31 13:00 4.69 µg/m3 0.17 µg/m3 91.26 µg/m3 10.9 µg/m3 6.97 µg/m3 21.82 °C 85.83 % 1,006.61 mbar 3.36 m/s 33.47 Deg 1.15 µg/m3
2023-05-31 12:00 6.48 µg/m3 0.16 µg/m3 94.54 µg/m3 15.02 µg/m3 7.21 µg/m3 21.78 °C 85.41 % 1,006.86 mbar 3.23 m/s 29.07 Deg 1.74 µg/m3
2023-05-31 11:00 5.19 µg/m3 0.11 µg/m3 96.16 µg/m3 20.86 µg/m3 10.09 µg/m3 21.59 °C 86.92 % 1,007.27 mbar 3.16 m/s 247.83 Deg 1.13 µg/m3
2023-05-31 10:00 6 µg/m3 0.16 µg/m3 94.59 µg/m3 19.19 µg/m3 13.9 µg/m3 21.43 °C 87.84 % 1,007.05 mbar 2.95 m/s 185.89 Deg 1.34 µg/m3
2023-05-31 09:00 11.81 µg/m3 0.15 µg/m3 91.43 µg/m3 28.07 µg/m3 9.76 µg/m3 21.09 °C 89.44 % 1,006.82 mbar 2.77 m/s 106.3 Deg 2.69 µg/m3
2023-05-31 08:00 6.73 µg/m3 0.29 µg/m3 88.44 µg/m3 27.72 µg/m3 12.42 µg/m3 20.94 °C 89.43 % 1,006.60 mbar 2.47 m/s 262.02 Deg 1.12 µg/m3
2023-05-31 07:00 24.08 µg/m3 0.28 µg/m3 74.14 µg/m3 21.49 µg/m3 12.61 µg/m3 20.32 °C 93.32 % 1,006.24 mbar 2.5 m/s 38.4 Deg 4.66 µg/m3
2023-05-31 06:00 23.41 µg/m3 0.26 µg/m3 66.5 µg/m3 25.68 µg/m3 9.23 µg/m3 19.55 °C 98.75 % 1,005.87 mbar 1.89 m/s 40.35 Deg 2.13 µg/m3
2023-05-31 05:00 10.8 µg/m3 0.23 µg/m3 76.18 µg/m3 15.41 µg/m3 7.55 µg/m3 19.32 °C 100 % 1,005.49 mbar 2.15 m/s 33.45 Deg 0.79 µg/m3
2023-05-31 04:00 3.58 µg/m3 0.09 µg/m3 86.64 µg/m3 17.77 µg/m3 9.45 µg/m3 19.33 °C 100 % 1,005.69 mbar 1.87 m/s 37.97 Deg 0.45 µg/m3
2023-05-31 03:00 3.4 µg/m3 0.1 µg/m3 92.89 µg/m3 17.34 µg/m3 14 µg/m3 19.45 °C 99.97 % 1,005.72 mbar 1.66 m/s 34.28 Deg 0.4 µg/m3
2023-05-31 02:00 2.29 µg/m3 0.14 µg/m3 101.28 µg/m3 14.8 µg/m3 6.36 µg/m3 19.74 °C 97.97 % 1,005.88 mbar 1.83 m/s 35.45 Deg 0.37 µg/m3
2023-05-31 01:00 3.52 µg/m3 0.1 µg/m3 94.43 µg/m3 21.18 µg/m3 6.63 µg/m3 19.78 °C 96.17 % 1,006.27 mbar 1.74 m/s 44.85 Deg 0.38 µg/m3
2023-05-31 00:00 3.44 µg/m3 0.14 µg/m3 101.49 µg/m3 22.69 µg/m3 8.81 µg/m3 19.97 °C 94.5 % 1,006.53 mbar 1.7 m/s 48.4 Deg 0.38 µg/m3
2023-05-30 23:00 4.09 µg/m3 0.1 µg/m3 104.69 µg/m3 30.03 µg/m3 8.32 µg/m3 20 °C 94.99 % 1,006.64 mbar 1.84 m/s 37.28 Deg 0.39 µg/m3
2023-05-30 22:00 6.33 µg/m3 0.11 µg/m3 111.36 µg/m3 23.67 µg/m3 12.19 µg/m3 20.3 °C 92.55 % 1,006.62 mbar 2.2 m/s 32.98 Deg 0.64 µg/m3
2023-05-30 21:00 6.02 µg/m3 0.11 µg/m3 120.51 µg/m3 17.74 µg/m3 9.83 µg/m3 20.54 °C 89.56 % 1,006.42 mbar 2.25 m/s 39.52 Deg 0.56 µg/m3
2023-05-30 20:00 7.69 µg/m3 0.24 µg/m3 110.4 µg/m3 20.2 µg/m3 14.79 µg/m3 20.74 °C 86.29 % 1,005.88 mbar 2.4 m/s 37.9 Deg 0.89 µg/m3
2023-05-30 19:00 7.88 µg/m3 0.39 µg/m3 115.44 µg/m3 11.11 µg/m3 7.88 µg/m3 21.09 °C 84.81 % 1,005.56 mbar 2.34 m/s 31.78 Deg 0.75 µg/m3
2023-05-30 18:00 8.34 µg/m3 0.27 µg/m3 116.3 µg/m3 4.58 µg/m3 4.81 µg/m3 21.42 °C 77.62 % 1,005.35 mbar 1.78 m/s 72.35 Deg 0.79 µg/m3
2023-05-30 17:00 2.2 µg/m3 0.35 µg/m3 123.93 µg/m3 4.14 µg/m3 3.61 µg/m3 21.31 °C 77.05 % 1,005.32 mbar 2.06 m/s 186.43 Deg 0.45 µg/m3
2023-05-30 16:00 1.79 µg/m3 0.31 µg/m3 115.19 µg/m3 5.53 µg/m3 4.34 µg/m3 22.19 °C 72.06 % 1,005.49 mbar 2.74 m/s 175.37 Deg 0.45 µg/m3
2023-05-30 15:00 1.97 µg/m3 0.34 µg/m3 116.69 µg/m3 8.3 µg/m3 3.55 µg/m3 22.08 °C 67.79 % 1,005.79 mbar 2.77 m/s 148.6 Deg 0.46 µg/m3
2023-05-30 14:00 3.78 µg/m3 0.35 µg/m3 116.57 µg/m3 7.47 µg/m3 4.21 µg/m3 22.26 °C 72.09 % 1,006.01 mbar 2.55 m/s 173.27 Deg 0.65 µg/m3
2023-05-30 13:00 6.7 µg/m3 0.3 µg/m3 117.31 µg/m3 9.01 µg/m3 5.55 µg/m3 22.26 °C 77.23 % 1,006.27 mbar 2.2 m/s 87.43 Deg 1.05 µg/m3
2023-05-30 12:00 7.51 µg/m3 0.25 µg/m3 118.96 µg/m3 10.56 µg/m3 6.94 µg/m3 21.9 °C 81.89 % 1,006.51 mbar 1.9 m/s 234.28 Deg 1.12 µg/m3
2023-05-30 11:00 8.98 µg/m3 0.28 µg/m3 107.61 µg/m3 15.59 µg/m3 9.57 µg/m3 21.76 °C 81.24 % 1,006.59 mbar 2.33 m/s 165.77 Deg 1.47 µg/m3
2023-05-30 10:00 17.28 µg/m3 0.32 µg/m3 92.67 µg/m3 21.09 µg/m3 14.44 µg/m3 21.82 °C 78.93 % 1,006.54 mbar 2.53 m/s 179.72 Deg 3.73 µg/m3
2023-05-30 09:00 12.73 µg/m3 0.29 µg/m3 92.93 µg/m3 34.5 µg/m3 19.56 µg/m3 21.35 °C 83.6 % 1,006.49 mbar 2.7 m/s 31.07 Deg 2.82 µg/m3
2023-05-30 08:00 21.95 µg/m3 0.34 µg/m3 72.91 µg/m3 47.99 µg/m3 16.06 µg/m3 20.68 °C 91.61 % 1,006.46 mbar 2.24 m/s 18.35 Deg 5.1 µg/m3
2023-05-30 07:00 30.07 µg/m3 0.86 µg/m3 54.66 µg/m3 53.43 µg/m3 17.44 µg/m3 19.99 °C 98.38 % 1,006.09 mbar 1.56 m/s 24.48 Deg 6.13 µg/m3
2023-05-30 06:00 35.67 µg/m3 0.32 µg/m3 44.09 µg/m3 32.75 µg/m3 17.64 µg/m3 19.39 °C 100 % 1,005.90 mbar 0.92 m/s 15.15 Deg 4.96 µg/m3
2023-05-30 05:00 13.78 µg/m3 0.1 µg/m3 67.14 µg/m3 21.75 µg/m3 16.55 µg/m3 19.31 °C 100 % 1,005.48 mbar 0.74 m/s 251.77 Deg 0.78 µg/m3
2023-05-30 04:00 6.98 µg/m3 0.1 µg/m3 78.16 µg/m3 18.58 µg/m3 13.1 µg/m3 19.23 °C 98.74 % 1,005.29 mbar 1.26 m/s 25.73 Deg 0.5 µg/m3
2023-05-30 03:00 7.48 µg/m3 0.04 µg/m3 79.53 µg/m3 16.86 µg/m3 8.53 µg/m3 19.34 °C 96.91 % 1,005.30 mbar 0.98 m/s 14.88 Deg 0.43 µg/m3
2023-05-30 02:00 5.56 µg/m3 0.07 µg/m3 87 µg/m3 20.07 µg/m3 11.6 µg/m3 19.29 °C 96.4 % 1,005.35 mbar 1.03 m/s 25.5 Deg 0.46 µg/m3
2023-05-30 01:00 5.75 µg/m3 0.04 µg/m3 85.7 µg/m3 28.03 µg/m3 12.64 µg/m3 19.31 °C 96.55 % 1,005.50 mbar 0.79 m/s 31.03 Deg 0.4 µg/m3
2023-05-30 00:00 8.35 µg/m3 0.09 µg/m3 76.73 µg/m3 26.25 µg/m3 17.02 µg/m3 19.26 °C 96.28 % 1,005.96 mbar 0.55 m/s 194.5 Deg 0.41 µg/m3
2023-05-29 23:00 7.05 µg/m3 0.1 µg/m3 82.78 µg/m3 18.23 µg/m3 10.43 µg/m3 19.24 °C 93.98 % 1,005.93 mbar 1.03 m/s 174.98 Deg 0.39 µg/m3
2023-05-29 22:00 6.17 µg/m3 0.12 µg/m3 90.32 µg/m3 23.16 µg/m3 14.66 µg/m3 19.37 °C 90.97 % 1,005.70 mbar 0.9 m/s 178.83 Deg 0.4 µg/m3
2023-05-29 21:00 4.81 µg/m3 0.1 µg/m3 98.37 µg/m3 12.45 µg/m3 6.62 µg/m3 19.62 °C 94.44 % 1,005.31 mbar 1.48 m/s 37.38 Deg 0.5 µg/m3
2023-05-29 20:00 8.97 µg/m3 0.29 µg/m3 92.93 µg/m3 9.45 µg/m3 6.99 µg/m3 19.92 °C 91.81 % 1,004.87 mbar 1.32 m/s 80.27 Deg 0.78 µg/m3
2023-05-29 19:00 4.89 µg/m3 0.33 µg/m3 100.16 µg/m3 9.37 µg/m3 6.8 µg/m3 20.56 °C 87.32 % 1,004.69 mbar 1.64 m/s 189.78 Deg 0.47 µg/m3
2023-05-29 18:00 5.34 µg/m3 0.22 µg/m3 103.34 µg/m3 7.99 µg/m3 7.61 µg/m3 20.95 °C 79.8 % 1,004.85 mbar 1.42 m/s 171.61 Deg 0.57 µg/m3
2023-05-29 17:00 10.22 µg/m3 0.23 µg/m3 99.67 µg/m3 9.12 µg/m3 5.24 µg/m3 20.79 °C 80.59 % 1,004.95 mbar 3.09 m/s 181.37 Deg 1.23 µg/m3
2023-05-29 16:00 13.87 µg/m3 0.35 µg/m3 99.45 µg/m3 9.48 µg/m3 5.35 µg/m3 21.16 °C 78.68 % 1,005.09 mbar 3.21 m/s 170.17 Deg 1.97 µg/m3
2023-05-29 15:00 14.58 µg/m3 0.28 µg/m3 101.67 µg/m3 9.61 µg/m3 6.3 µg/m3 21.26 °C 82.53 % 1,004.94 mbar 4.29 m/s 157.75 Deg 2.38 µg/m3
2023-05-29 14:00 3.87 µg/m3 0.28 µg/m3 107.12 µg/m3 10.24 µg/m3 5.66 µg/m3 21.46 °C 81.88 % 1,005.09 mbar 3.76 m/s 165.68 Deg 0.8 µg/m3
2023-05-29 13:00 3.72 µg/m3 0.21 µg/m3 113.05 µg/m3 11.32 µg/m3 6.69 µg/m3 21.47 °C 78.01 % 1,005.33 mbar 3.46 m/s 170.45 Deg 0.75 µg/m3
2023-05-29 12:00 12.25 µg/m3 0.31 µg/m3 103.45 µg/m3 14.67 µg/m3 6.16 µg/m3 21.68 °C 80.84 % 1,005.57 mbar 4.37 m/s 156.77 Deg 2.23 µg/m3
2023-05-29 11:00 14.48 µg/m3 0.53 µg/m3 112.67 µg/m3 20.66 µg/m3 9.44 µg/m3 22.24 °C 70.77 % 1,005.59 mbar 3.94 m/s 162.83 Deg 2.45 µg/m3
2023-05-29 10:00 7.47 µg/m3 0.27 µg/m3 109.91 µg/m3 27.47 µg/m3 13.82 µg/m3 22.62 °C 70.38 % 1,005.41 mbar 2.39 m/s 159 Deg 1.37 µg/m3
2023-05-29 09:00 13.56 µg/m3 0.35 µg/m3 95.76 µg/m3 44.51 µg/m3 17.34 µg/m3 21.71 °C 77.84 % 1,005.16 mbar 1.52 m/s 112.78 Deg 2.21 µg/m3
2023-05-29 08:00 28.48 µg/m3 0.38 µg/m3 71.94 µg/m3 62.57 µg/m3 22 µg/m3 20.58 °C 85.71 % 1,005.08 mbar 1.46 m/s 27.77 Deg 5.35 µg/m3
2023-05-29 07:00 42.77 µg/m3 0.72 µg/m3 55.22 µg/m3 48.71 µg/m3 22.63 µg/m3 19.06 °C 96.14 % 1,004.98 mbar 0.9 m/s 97.09 Deg 7.3 µg/m3
2023-05-29 06:00 28.85 µg/m3 0.21 µg/m3 57.81 µg/m3 41.27 µg/m3 16.92 µg/m3 17.92 °C 99.9 % 1,004.85 mbar 1.08 m/s 259.36 Deg 3.22 µg/m3
2023-05-29 05:00 13.46 µg/m3 0.15 µg/m3 74.61 µg/m3 41.6 µg/m3 15.14 µg/m3 17.96 °C 99.9 % 1,004.82 mbar 1.67 m/s 245.73 Deg 0.74 µg/m3
2023-05-29 04:00 12.67 µg/m3 0.18 µg/m3 62.98 µg/m3 28.92 µg/m3 17.91 µg/m3 18.15 °C 99.9 % 1,005.03 mbar 1.52 m/s 221.82 Deg 0.68 µg/m3
2023-05-29 03:00 5.72 µg/m3 0.15 µg/m3 73.43 µg/m3 40.13 µg/m3 13.86 µg/m3 18.55 °C 99.9 % 1,005.05 mbar 0.45 m/s 172.37 Deg 0.54 µg/m3
2023-05-29 02:00 6.09 µg/m3 0.2 µg/m3 85.3 µg/m3 32.56 µg/m3 9.61 µg/m3 19.11 °C 97.76 % 1,005.13 mbar 0.74 m/s 163.1 Deg 0.51 µg/m3
2023-05-29 01:00 9.1 µg/m3 0.32 µg/m3 67.64 µg/m3 26.79 µg/m3 13.85 µg/m3 19.1 °C 86.86 % 1,005.55 mbar 0.61 m/s 181.69 Deg 0.49 µg/m3
2023-05-29 00:00 10.66 µg/m3 0.19 µg/m3 85.44 µg/m3 41.88 µg/m3 21.48 µg/m3 19.45 °C 85.65 % 1,005.97 mbar 0.93 m/s 301.68 Deg 0.6 µg/m3
2023-05-28 23:00 15.14 µg/m3 0.15 µg/m3 85.85 µg/m3 53.45 µg/m3 31.64 µg/m3 19.87 °C 90.81 % 1,006.28 mbar 0.66 m/s 240.41 Deg 0.51 µg/m3
2023-05-28 22:00 19.86 µg/m3 0.5 µg/m3 94.26 µg/m3 52.77 µg/m3 13.74 µg/m3 20.09 °C 86.77 % 1,006.29 mbar 1.07 m/s 307.89 Deg 0.65 µg/m3
2023-05-28 21:00 12.42 µg/m3 0.15 µg/m3 91.3 µg/m3 54.78 µg/m3 23.12 µg/m3 19.66 °C 96.55 % 1,006.05 mbar 0.69 m/s 217.53 Deg 0.47 µg/m3
2023-05-28 20:00 12.99 µg/m3 0.18 µg/m3 106.36 µg/m3 36.73 µg/m3 11.84 µg/m3 20.43 °C 89.12 % 1,005.34 mbar 1.21 m/s 159.57 Deg 0.47 µg/m3
2023-05-28 19:00 13.53 µg/m3 0.36 µg/m3 119.98 µg/m3 29.16 µg/m3 11.54 µg/m3 21.37 °C 78.62 % 1,005.01 mbar 2.01 m/s 101.22 Deg 0.71 µg/m3
2023-05-28 18:00 13.33 µg/m3 0.4 µg/m3 116.36 µg/m3 19.9 µg/m3 15.13 µg/m3 22.95 °C 71.64 % 1,004.58 mbar 2.53 m/s 250.15 Deg 0.93 µg/m3
2023-05-28 17:00 7.35 µg/m3 0.32 µg/m3 119.52 µg/m3 21.22 µg/m3 6.4 µg/m3 23.52 °C 69.53 % 1,004.73 mbar 3.2 m/s 199.82 Deg 0.87 µg/m3
2023-05-28 16:00 12.16 µg/m3 0.45 µg/m3 122.39 µg/m3 29.3 µg/m3 5.64 µg/m3 23.02 °C 70.23 % 1,005.09 mbar 2.8 m/s 165.58 Deg 1.4 µg/m3
2023-05-28 15:00 3.72 µg/m3 0.46 µg/m3 130.49 µg/m3 18.07 µg/m3 6.74 µg/m3 22.95 °C 68.16 % 1,005.33 mbar 2.74 m/s 151.27 Deg 0.53 µg/m3
2023-05-28 14:00 4.28 µg/m3 0.48 µg/m3 122.86 µg/m3 11.36 µg/m3 6.48 µg/m3 23.72 °C 61.67 % 1,005.66 mbar 2.11 m/s 124.87 Deg 0.66 µg/m3
2023-05-28 13:00 5.18 µg/m3 0.38 µg/m3 121.07 µg/m3 9.55 µg/m3 5.78 µg/m3 23.07 °C 65.22 % 1,005.94 mbar 2.55 m/s 29.13 Deg 0.78 µg/m3
2023-05-28 12:00 6.33 µg/m3 0.37 µg/m3 117.99 µg/m3 9.72 µg/m3 8.68 µg/m3 22.09 °C 71.43 % 1,005.97 mbar 3.37 m/s 31.03 Deg 1.01 µg/m3
2023-05-28 11:00 7.42 µg/m3 0.32 µg/m3 113.51 µg/m3 14.26 µg/m3 11.52 µg/m3 21.84 °C 76.94 % 1,006.06 mbar 3.43 m/s 20.98 Deg 1.25 µg/m3
2023-05-28 10:00 6.94 µg/m3 0.31 µg/m3 109.82 µg/m3 21.25 µg/m3 12.49 µg/m3 21.43 °C 79.11 % 1,006.22 mbar 3.13 m/s 30.55 Deg 1.26 µg/m3
2023-05-28 09:00 6.96 µg/m3 0.28 µg/m3 107.03 µg/m3 37.23 µg/m3 12.4 µg/m3 21.04 °C 81.36 % 1,006.27 mbar 2.63 m/s 23.17 Deg 1.18 µg/m3
2023-05-28 08:00 6.78 µg/m3 0.43 µg/m3 100.4 µg/m3 39.84 µg/m3 9.64 µg/m3 20.24 °C 90.31 % 1,006.30 mbar 2.17 m/s 19.8 Deg 1.32 µg/m3
2023-05-28 07:00 7.26 µg/m3 0.28 µg/m3 95.31 µg/m3 40.31 µg/m3 14.76 µg/m3 18.94 °C 97.97 % 1,006.20 mbar 2.06 m/s 37.73 Deg 1.05 µg/m3
2023-05-28 06:00 12.21 µg/m3 0.28 µg/m3 72.3 µg/m3 39.06 µg/m3 8.23 µg/m3 18.51 °C 99.9 % 1,005.96 mbar 1.06 m/s 29.32 Deg 0.77 µg/m3
2023-05-28 05:00 12.75 µg/m3 0.31 µg/m3 55.44 µg/m3 30.04 µg/m3 9.78 µg/m3 18.21 °C 98.95 % 1,005.64 mbar 0.91 m/s 218.15 Deg 0.78 µg/m3
2023-05-28 04:00 9.49 µg/m3 0.46 µg/m3 65.64 µg/m3 22.05 µg/m3 12.52 µg/m3 18.71 °C 96.46 % 1,005.34 mbar 0.78 m/s 130.32 Deg 0.51 µg/m3
2023-05-28 03:00 14.37 µg/m3 0.33 µg/m3 66.46 µg/m3 24.15 µg/m3 10.24 µg/m3 18.95 °C 95.44 % 1,005.39 mbar 0.72 m/s 229.77 Deg 0.54 µg/m3
2023-05-28 02:00 4.53 µg/m3 0.19 µg/m3 82.82 µg/m3 21.12 µg/m3 14.59 µg/m3 18.91 °C 96.9 % 1,005.55 mbar 1.55 m/s 297.02 Deg 0.43 µg/m3
2023-05-28 01:00 8.38 µg/m3 0.22 µg/m3 70.36 µg/m3 28.46 µg/m3 11.62 µg/m3 19.14 °C 93.31 % 1,006.00 mbar 1.05 m/s 234.24 Deg 0.53 µg/m3
2023-05-28 00:00 10.08 µg/m3 0.2 µg/m3 77.91 µg/m3 38.47 µg/m3 15.2 µg/m3 19.32 °C 93.32 % 1,006.34 mbar 1.1 m/s 247.75 Deg 0.51 µg/m3
2023-05-27 23:00 8.38 µg/m3 0.2 µg/m3 90.01 µg/m3 50.06 µg/m3 19.48 µg/m3 19.32 °C 94.57 % 1,006.80 mbar 1.84 m/s 250.95 Deg 0.49 µg/m3
2023-05-27 22:00 10.87 µg/m3 0.21 µg/m3 88.04 µg/m3 52.1 µg/m3 24.45 µg/m3 19.94 °C 87.43 % 1,007.27 mbar 1.61 m/s 234.58 Deg 0.57 µg/m3
2023-05-27 21:00 16.5 µg/m3 0.47 µg/m3 89.28 µg/m3 49.18 µg/m3 16.77 µg/m3 20.76 °C 78.93 % 1,007.17 mbar 1.61 m/s 287.22 Deg 0.72 µg/m3
2023-05-27 20:00 16.87 µg/m3 0.47 µg/m3 96.28 µg/m3 41.79 µg/m3 13.69 µg/m3 21.05 °C 79.81 % 1,006.82 mbar 1.22 m/s 238.18 Deg 0.57 µg/m3
2023-05-27 19:00 16.41 µg/m3 0.69 µg/m3 106.35 µg/m3 30.29 µg/m3 10.29 µg/m3 22.93 °C 67.24 % 1,006.63 mbar 1.4 m/s 307.82 Deg 0.97 µg/m3
2023-05-27 18:00 12.37 µg/m3 0.56 µg/m3 108.18 µg/m3 30.87 µg/m3 10.83 µg/m3 24.25 °C 51.61 % 1,006.70 mbar 2.2 m/s 316.57 Deg 1.19 µg/m3
2023-05-27 17:00 10.99 µg/m3 0.51 µg/m3 113.44 µg/m3 17.87 µg/m3 7.08 µg/m3 23.65 °C 61.04 % 1,006.73 mbar 2.88 m/s 100.32 Deg 1.23 µg/m3
2023-05-27 16:00 6.24 µg/m3 0.52 µg/m3 119.76 µg/m3 15.84 µg/m3 7.37 µg/m3 24.9 °C 53.59 % 1,006.66 mbar 2.88 m/s 80.27 Deg 0.87 µg/m3
2023-05-27 15:00 4.93 µg/m3 0.56 µg/m3 123.08 µg/m3 19.53 µg/m3 4.91 µg/m3 25.34 °C 49.22 % 1,006.82 mbar 3.21 m/s 223.18 Deg 0.7 µg/m3
2023-05-27 14:00 11.69 µg/m3 0.69 µg/m3 115.47 µg/m3 14.74 µg/m3 6.24 µg/m3 24.24 °C 55.76 % 1,007.34 mbar 3.61 m/s 169.57 Deg 1.77 µg/m3
2023-05-27 13:00 16.66 µg/m3 0.7 µg/m3 104.28 µg/m3 17.49 µg/m3 6.18 µg/m3 23.85 °C 58.29 % 1,007.57 mbar 3.25 m/s 167.03 Deg 2.66 µg/m3
2023-05-27 12:00 8.1 µg/m3 0.73 µg/m3 109.41 µg/m3 11.3 µg/m3 5.58 µg/m3 24.74 °C 53.17 % 1,007.63 mbar 2 m/s 162.8 Deg 1.39 µg/m3
2023-05-27 11:00 12.12 µg/m3 1.09 µg/m3 105.41 µg/m3 11.88 µg/m3 7.3 µg/m3 24 °C 53.86 % 1,007.89 mbar 2.15 m/s 95.96 Deg 2.15 µg/m3
2023-05-27 10:00 14.7 µg/m3 0.91 µg/m3 96.59 µg/m3 14.54 µg/m3 11.09 µg/m3 23.26 °C 55.38 % 1,007.97 mbar 2.42 m/s 13.73 Deg 3.2 µg/m3
2023-05-27 09:00 16.79 µg/m3 0.72 µg/m3 85.91 µg/m3 21.47 µg/m3 14.95 µg/m3 22.45 °C 59.48 % 1,007.96 mbar 2.97 m/s 181.7 Deg 3.85 µg/m3
2023-05-27 08:00 24.94 µg/m3 0.65 µg/m3 68.93 µg/m3 33.32 µg/m3 13.52 µg/m3 21.24 °C 66.58 % 1,007.98 mbar 2.57 m/s 347.72 Deg 5.91 µg/m3
2023-05-27 07:00 41.58 µg/m3 0.9 µg/m3 44.27 µg/m3 37.49 µg/m3 10.9 µg/m3 19.88 °C 77.44 % 1,007.86 mbar 2 m/s 344.43 Deg 9.6 µg/m3
2023-05-27 06:00 48.7 µg/m3 1.03 µg/m3 27.83 µg/m3 26.27 µg/m3 12.79 µg/m3 18.56 °C 86.64 % 1,007.74 mbar 1.29 m/s 319.6 Deg 7.46 µg/m3
2023-05-27 05:00 28.19 µg/m3 0.37 µg/m3 48.13 µg/m3 35 µg/m3 10.21 µg/m3 18.21 °C 89.46 % 1,007.58 mbar 1.35 m/s 335.2 Deg 1.78 µg/m3
2023-05-27 04:00 10.38 µg/m3 0.3 µg/m3 65.42 µg/m3 33.73 µg/m3 11.97 µg/m3 17.89 °C 94.91 % 1,007.49 mbar 1.53 m/s 312.88 Deg 0.92 µg/m3
2023-05-27 03:00 7.68 µg/m3 0.19 µg/m3 68.41 µg/m3 28.5 µg/m3 14.24 µg/m3 18.03 °C 95.64 % 1,007.49 mbar 1.61 m/s 306.04 Deg 0.59 µg/m3
2023-05-27 02:00 8.78 µg/m3 0.19 µg/m3 69.21 µg/m3 34.34 µg/m3 9.24 µg/m3 18.1 °C 94.33 % 1,007.66 mbar 1.65 m/s 310.33 Deg 0.57 µg/m3
2023-05-27 01:00 13.47 µg/m3 0.24 µg/m3 70.57 µg/m3 30.88 µg/m3 10.77 µg/m3 18.65 °C 83.38 % 1,007.97 mbar 2.17 m/s 300.35 Deg 0.58 µg/m3
2023-05-27 00:00 33.11 µg/m3 0.34 µg/m3 50.3 µg/m3 34.13 µg/m3 15.02 µg/m3 19.37 °C 64.82 % 1,008.30 mbar 1.95 m/s 302.78 Deg 1.08 µg/m3
2023-05-26 23:00 38.64 µg/m3 0.42 µg/m3 54.45 µg/m3 36.14 µg/m3 16.26 µg/m3 20.52 °C 57.94 % 1,008.52 mbar 1.67 m/s 297.58 Deg 1.34 µg/m3
2023-05-26 22:00 34.28 µg/m3 0.7 µg/m3 58.11 µg/m3 24.07 µg/m3 6.85 µg/m3 20.22 °C 65.14 % 1,008.70 mbar 1.43 m/s 299.28 Deg 1.23 µg/m3
2023-05-26 21:00 37.28 µg/m3 0.54 µg/m3 62.95 µg/m3 29.01 µg/m3 8.91 µg/m3 20.59 °C 64.15 % 1,008.40 mbar 1.85 m/s 335.6 Deg 1.42 µg/m3
2023-05-26 20:00 26.4 µg/m3 0.6 µg/m3 76.59 µg/m3 27.46 µg/m3 12.52 µg/m3 20.64 °C 66.63 % 1,008.24 mbar 2.29 m/s 353.38 Deg 1.03 µg/m3
2023-05-26 19:00 21.23 µg/m3 0.59 µg/m3 90.27 µg/m3 18.37 µg/m3 6.72 µg/m3 21.68 °C 56.55 % 1,008.21 mbar 2.97 m/s 351.05 Deg 1.53 µg/m3
2023-05-26 18:00 15.54 µg/m3 0.61 µg/m3 102.75 µg/m3 14.21 µg/m3 5.51 µg/m3 22.11 °C 55.36 % 1,007.92 mbar 3.31 m/s 345.98 Deg 1.75 µg/m3
2023-05-26 17:00 9.58 µg/m3 0.45 µg/m3 111.52 µg/m3 13.79 µg/m3 6.07 µg/m3 21.94 °C 59.34 % 1,008.04 mbar 3.57 m/s 350.68 Deg 1.41 µg/m3
2023-05-26 16:00 8.65 µg/m3 0.42 µg/m3 109.25 µg/m3 12.77 µg/m3 5.77 µg/m3 21.8 °C 60.84 % 1,008.08 mbar 2.76 m/s 12.48 Deg 1.41 µg/m3
2023-05-26 15:00 8.18 µg/m3 0.4 µg/m3 105.93 µg/m3 15.5 µg/m3 5.47 µg/m3 22.01 °C 60.4 % 1,008.33 mbar 3.27 m/s 28.93 Deg 1.69 µg/m3
2023-05-26 14:00 8.76 µg/m3 0.38 µg/m3 107.52 µg/m3 20.06 µg/m3 6.17 µg/m3 21.77 °C 66.79 % 1,008.62 mbar 3.46 m/s 42.27 Deg 1.56 µg/m3
2023-05-26 13:00 9.47 µg/m3 0.38 µg/m3 104.57 µg/m3 16.65 µg/m3 9.47 µg/m3 21.36 °C 70.33 % 1,008.71 mbar 3.84 m/s 30.6 Deg 2.16 µg/m3
2023-05-26 12:00 10.79 µg/m3 0.81 µg/m3 97.67 µg/m3 20.18 µg/m3 8.07 µg/m3 21 °C 75.46 % 1,008.46 mbar 3.14 m/s 24.77 Deg 1.95 µg/m3
2023-05-26 11:00 9.18 µg/m3 0.32 µg/m3 94.31 µg/m3 28.62 µg/m3 12.51 µg/m3 20.67 °C 74.65 % 1,008.16 mbar 3.4 m/s 43.17 Deg 1.78 µg/m3
2023-05-26 10:00 12.27 µg/m3 0.39 µg/m3 88.73 µg/m3 38.97 µg/m3 9.09 µg/m3 20.42 °C 78.46 % 1,007.72 mbar 3.87 m/s 26.02 Deg 2.88 µg/m3
2023-05-26 09:00 12.67 µg/m3 0.36 µg/m3 84.17 µg/m3 29.8 µg/m3 8.86 µg/m3 19.72 °C 86.22 % 1,007.39 mbar 3.99 m/s 116.75 Deg 2.51 µg/m3
2023-05-26 08:00 13.33 µg/m3 0.42 µg/m3 79.88 µg/m3 27.05 µg/m3 12.23 µg/m3 18.81 °C 94.79 % 1,006.93 mbar 3.96 m/s 38.4 Deg 2.44 µg/m3
2023-05-26 07:00 14.59 µg/m3 0.31 µg/m3 72.17 µg/m3 25.11 µg/m3 7.56 µg/m3 18.2 °C 99.89 % 1,006.12 mbar 4.06 m/s 39.37 Deg 2.52 µg/m3
2023-05-26 06:00 14.57 µg/m3 0.19 µg/m3 70.17 µg/m3 27.42 µg/m3 10.77 µg/m3 18.02 °C 99.9 % 1,005.95 mbar 3.44 m/s 47.08 Deg 1.65 µg/m3
2023-05-26 05:00 10.8 µg/m3 0.2 µg/m3 72.02 µg/m3 17.86 µg/m3 5.65 µg/m3 18.05 °C 99.9 % 1,005.67 mbar 3.06 m/s 38.32 Deg 0.77 µg/m3
2023-05-26 04:00 5.4 µg/m3 0.2 µg/m3 78.54 µg/m3 22.11 µg/m3 6.65 µg/m3 17.96 °C 99.9 % 1,005.12 mbar 3.33 m/s 36.13 Deg 0.43 µg/m3
2023-05-26 03:00 3.16 µg/m3 0.12 µg/m3 84.94 µg/m3 21.82 µg/m3 6.98 µg/m3 18.09 °C 99.9 % 1,005.80 mbar 2.28 m/s 111.27 Deg 0.34 µg/m3
2023-05-26 02:00 2.57 µg/m3 0.11 µg/m3 89.47 µg/m3 20.64 µg/m3 7.53 µg/m3 17.98 °C 98.15 % 1,006.38 mbar 3.75 m/s 193.08 Deg 0.32 µg/m3
2023-05-26 01:00 2.81 µg/m3 0.11 µg/m3 95.8 µg/m3 32.1 µg/m3 9.2 µg/m3 17.91 °C 93.01 % 1,005.80 mbar 5.42 m/s 225.28 Deg 0.31 µg/m3
2023-05-26 00:00 3.02 µg/m3 0.07 µg/m3 96.22 µg/m3 22.87 µg/m3 11.53 µg/m3 18.18 °C 96.38 % 1,006.25 mbar 4.58 m/s 222.38 Deg 0.35 µg/m3
2023-05-25 23:00 3.01 µg/m3 0.1 µg/m3 101.27 µg/m3 20.68 µg/m3 9.23 µg/m3 18.38 °C 94.8 % 1,005.97 mbar 4.46 m/s 181.12 Deg 0.39 µg/m3
2023-05-25 22:00 2.93 µg/m3 0.13 µg/m3 96.25 µg/m3 28.25 µg/m3 11.73 µg/m3 18.53 °C 94.93 % 1,006.11 mbar 3.79 m/s 169.17 Deg 0.37 µg/m3
2023-05-25 21:00 5.17 µg/m3 0.15 µg/m3 91.52 µg/m3 36.36 µg/m3 7.55 µg/m3 18.44 °C 96.36 % 1,005.63 mbar 3.68 m/s 157.27 Deg 0.55 µg/m3
2023-05-25 20:00 6.75 µg/m3 0.18 µg/m3 94.04 µg/m3 32.71 µg/m3 10.05 µg/m3 18.61 °C 95.06 % 1,005.32 mbar 3.34 m/s 247.92 Deg 0.56 µg/m3
2023-05-25 19:00 5.31 µg/m3 0.2 µg/m3 101.19 µg/m3 31.85 µg/m3 7.99 µg/m3 18.83 °C 92.75 % 1,005.22 mbar 4.16 m/s 228.23 Deg 0.45 µg/m3
2023-05-25 18:00 7.85 µg/m3 0.23 µg/m3 104.4 µg/m3 30.86 µg/m3 12.21 µg/m3 19.26 °C 89.75 % 1,004.70 mbar 4.34 m/s 251.95 Deg 0.64 µg/m3
2023-05-25 17:00 6.9 µg/m3 0.27 µg/m3 111.96 µg/m3 35.23 µg/m3 8.78 µg/m3 19.69 °C 87.25 % 1,004.58 mbar 5.07 m/s 245.25 Deg 0.71 µg/m3
2023-05-25 16:00 4.31 µg/m3 0.25 µg/m3 110.22 µg/m3 25.68 µg/m3 4.89 µg/m3 20.24 °C 83.04 % 1,004.39 mbar 5.38 m/s 254 Deg 0.67 µg/m3
2023-05-25 15:00 3.35 µg/m3 0.23 µg/m3 103.31 µg/m3 20.31 µg/m3 6.07 µg/m3 20.37 °C 81.65 % 1,004.73 mbar 5.91 m/s 238.6 Deg 0.66 µg/m3
2023-05-25 14:00 4.33 µg/m3 0.2 µg/m3 105.83 µg/m3 19.05 µg/m3 7.52 µg/m3 20.71 °C 81.38 % 1,004.99 mbar 4.75 m/s 213.01 Deg 1.02 µg/m3
2023-05-25 13:00 4.2 µg/m3 0.24 µg/m3 104.47 µg/m3 21.6 µg/m3 10.44 µg/m3 20.87 °C 82.05 % 1,005.28 mbar 4.9 m/s 259.15 Deg 0.96 µg/m3
2023-05-25 12:00 4.23 µg/m3 0.28 µg/m3 101.51 µg/m3 33.39 µg/m3 12.68 µg/m3 20.79 °C 84.24 % 1,005.62 mbar 4.6 m/s 145.82 Deg 1.13 µg/m3
2023-05-25 11:00 7.01 µg/m3 0.4 µg/m3 100.37 µg/m3 27.62 µg/m3 12.1 µg/m3 20.29 °C 87.53 % 1,005.63 mbar 4.09 m/s 33.57 Deg 1.43 µg/m3
2023-05-25 10:00 8.53 µg/m3 0.3 µg/m3 94.19 µg/m3 27.95 µg/m3 12.39 µg/m3 19.81 °C 86.94 % 1,005.56 mbar 3.71 m/s 115.43 Deg 1.7 µg/m3
2023-05-25 09:00 9.17 µg/m3 0.36 µg/m3 88.3 µg/m3 45.22 µg/m3 7.22 µg/m3 19.51 °C 88.13 % 1,005.24 mbar 3.45 m/s 38.68 Deg 1.64 µg/m3
2023-05-25 08:00 7.66 µg/m3 0.29 µg/m3 89.4 µg/m3 31.97 µg/m3 7.05 µg/m3 19.38 °C 88.44 % 1,004.63 mbar 4.27 m/s 189.7 Deg 1.29 µg/m3
2023-05-25 07:00 7.8 µg/m3 0.47 µg/m3 91.35 µg/m3 26.53 µg/m3 7.31 µg/m3 18.6 °C 90.93 % 1,004.69 mbar 3.7 m/s 264.48 Deg 0.89 µg/m3
2023-05-25 06:00 10.39 µg/m3 0.22 µg/m3 88.32 µg/m3 20.12 µg/m3 8.47 µg/m3 18.51 °C 90.43 % 1,004.93 mbar 2.98 m/s 96.93 Deg 0.85 µg/m3
2023-05-25 05:00 4.91 µg/m3 0.24 µg/m3 90.95 µg/m3 19.86 µg/m3 11.01 µg/m3 18.34 °C 90.48 % 1,004.90 mbar 3.29 m/s 202.97 Deg 0.54 µg/m3
2023-05-25 04:00 4.01 µg/m3 0.2 µg/m3 89.24 µg/m3 21.11 µg/m3 9.1 µg/m3 18.25 °C 91.24 % 1,004.90 mbar 2.37 m/s 236.27 Deg 0.36 µg/m3
2023-05-25 03:00 3.12 µg/m3 0.15 µg/m3 90.04 µg/m3 18.37 µg/m3 11.5 µg/m3 18.06 °C 96.72 % 1,004.05 mbar 4.84 m/s 260.5 Deg 0.33 µg/m3
2023-05-25 02:00 2.73 µg/m3 0.23 µg/m3 91.26 µg/m3 23.32 µg/m3 9.96 µg/m3 18.04 °C 96.58 % 1,005.45 mbar 4.65 m/s 159.72 Deg 0.35 µg/m3
2023-05-25 01:00 3.31 µg/m3 0.18 µg/m3 92.2 µg/m3 27.44 µg/m3 10.68 µg/m3 18 °C 96.41 % 1,005.08 mbar 3.71 m/s 211.73 Deg 0.35 µg/m3
2023-05-25 00:00 4.81 µg/m3 0.19 µg/m3 89.77 µg/m3 19.12 µg/m3 8.27 µg/m3 18.09 °C 95.99 % 1,004.72 mbar 5.24 m/s 215.22 Deg 0.36 µg/m3
2023-05-24 23:00 3.5 µg/m3 0.19 µg/m3 93.21 µg/m3 18.37 µg/m3 8.79 µg/m3 18.14 °C 95.28 % 1,004.86 mbar 5.69 m/s 201.77 Deg 0.35 µg/m3
2023-05-24 22:00 2.75 µg/m3 0.17 µg/m3 102.88 µg/m3 21.33 µg/m3 11.87 µg/m3 18.11 °C 98.33 % 1,005.00 mbar 6.4 m/s 140.28 Deg 0.34 µg/m3
2023-05-24 21:00 3.84 µg/m3 0.19 µg/m3 103.24 µg/m3 17.49 µg/m3 9.23 µg/m3 18.06 °C 99.9 % 1,004.80 mbar 6.42 m/s 106.95 Deg 0.35 µg/m3
2023-05-24 20:00 3.69 µg/m3 0.15 µg/m3 108.76 µg/m3 24.53 µg/m3 12.49 µg/m3 18.27 °C 99.92 % 1,004.82 mbar 5.77 m/s 123.43 Deg 0.34 µg/m3
2023-05-24 19:00 1.91 µg/m3 0.17 µg/m3 112.31 µg/m3 26.34 µg/m3 13.46 µg/m3 18.51 °C 99.08 % 1,004.79 mbar 5.8 m/s 118.55 Deg 0.36 µg/m3
2023-05-24 18:00 1.47 µg/m3 0.23 µg/m3 105.1 µg/m3 42.07 µg/m3 10.64 µg/m3 18.88 °C 95.77 % 1,004.41 mbar 6.45 m/s 134.03 Deg 0.37 µg/m3
2023-05-24 17:00 1.4 µg/m3 0.25 µg/m3 103.55 µg/m3 21.37 µg/m3 6.7 µg/m3 19.09 °C 93.83 % 1,004.70 mbar 6.31 m/s 124.5 Deg 0.41 µg/m3
2023-05-24 16:00 1.48 µg/m3 0.19 µg/m3 104.17 µg/m3 17.73 µg/m3 6.83 µg/m3 19.31 °C 92.35 % 1,004.94 mbar 6.71 m/s 143.78 Deg 0.41 µg/m3
2023-05-24 15:00 1.65 µg/m3 0.23 µg/m3 105.95 µg/m3 24.68 µg/m3 9.88 µg/m3 19.64 °C 90.8 % 1,005.36 mbar 6.28 m/s 151.85 Deg 0.43 µg/m3
2023-05-24 14:00 2.24 µg/m3 0.21 µg/m3 106.91 µg/m3 27.9 µg/m3 6.29 µg/m3 19.55 °C 92.07 % 1,006.14 mbar 6.02 m/s 128.07 Deg 0.47 µg/m3
2023-05-24 13:00 2.53 µg/m3 0.2 µg/m3 110.2 µg/m3 22.38 µg/m3 8.12 µg/m3 19.69 °C 90.82 % 1,006.41 mbar 6.56 m/s 129.08 Deg 0.55 µg/m3
2023-05-24 12:00 1.88 µg/m3 0.22 µg/m3 108.51 µg/m3 16.2 µg/m3 10.99 µg/m3 19.7 °C 90.39 % 1,006.74 mbar 6.6 m/s 142.85 Deg 0.46 µg/m3
2023-05-24 11:00 2.21 µg/m3 0.19 µg/m3 104.88 µg/m3 16.94 µg/m3 8.84 µg/m3 19.47 °C 92.27 % 1,006.89 mbar 6.12 m/s 132.32 Deg 0.53 µg/m3
2023-05-24 10:00 2.91 µg/m3 0.19 µg/m3 99.97 µg/m3 19.58 µg/m3 12.76 µg/m3 19.43 °C 92.32 % 1,006.79 mbar 5.69 m/s 129.43 Deg 0.63 µg/m3
2023-05-24 09:00 3.12 µg/m3 0.18 µg/m3 94.19 µg/m3 29.34 µg/m3 9.4 µg/m3 19.14 °C 94.39 % 1,006.64 mbar 5.01 m/s 135.85 Deg 0.65 µg/m3
2023-05-24 08:00 4.2 µg/m3 0.15 µg/m3 89.27 µg/m3 30.08 µg/m3 8.54 µg/m3 18.63 °C 97.32 % 1,006.52 mbar 5.23 m/s 136.13 Deg 0.71 µg/m3
2023-05-24 07:00 10.69 µg/m3 0.23 µg/m3 79.5 µg/m3 23.78 µg/m3 8 µg/m3 18.16 °C 99.72 % 1,006.50 mbar 4.36 m/s 126.65 Deg 1.07 µg/m3
2023-05-24 06:00 6.74 µg/m3 0.1 µg/m3 78.81 µg/m3 19.74 µg/m3 6.74 µg/m3 17.56 °C 99.94 % 1,006.35 mbar 3.65 m/s 116.42 Deg 0.51 µg/m3
2023-05-24 05:00 4.58 µg/m3 0.1 µg/m3 81.75 µg/m3 17.47 µg/m3 7.44 µg/m3 17.49 °C 99.93 % 1,006.21 mbar 3.29 m/s 141.77 Deg 0.37 µg/m3
2023-05-24 04:00 3.96 µg/m3 0.11 µg/m3 85.12 µg/m3 15.6 µg/m3 9 µg/m3 17.44 °C 99.65 % 1,006.19 mbar 3.01 m/s 162.38 Deg 0.34 µg/m3
2023-05-24 03:00 2.42 µg/m3 0.1 µg/m3 83.67 µg/m3 13.75 µg/m3 7.46 µg/m3 17.47 °C 99.62 % 1,006.25 mbar 2.62 m/s 157.47 Deg 0.35 µg/m3
2023-05-24 02:00 4.29 µg/m3 0.06 µg/m3 81.63 µg/m3 12.34 µg/m3 7.44 µg/m3 17.55 °C 99.05 % 1,006.16 mbar 3.3 m/s 135.15 Deg 0.37 µg/m3
2023-05-24 01:00 2.74 µg/m3 0.07 µg/m3 89.7 µg/m3 15.08 µg/m3 7.8 µg/m3 17.53 °C 99.52 % 1,006.42 mbar 3.57 m/s 112.05 Deg 0.35 µg/m3
2023-05-24 00:00 1.53 µg/m3 0.12 µg/m3 89.58 µg/m3 20.2 µg/m3 7.67 µg/m3 17.69 °C 99.65 % 1,006.64 mbar 3.66 m/s 119.4 Deg 0.36 µg/m3
2023-05-23 23:00 2.73 µg/m3 0.09 µg/m3 89.83 µg/m3 28.62 µg/m3 8.31 µg/m3 17.73 °C 99.19 % 1,006.43 mbar 3.42 m/s 202.4 Deg 0.35 µg/m3
2023-05-23 22:00 4.76 µg/m3 0.07 µg/m3 90.24 µg/m3 22.13 µg/m3 9.98 µg/m3 17.88 °C 97.47 % 1,006.81 mbar 3.82 m/s 126.45 Deg 0.36 µg/m3
2023-05-23 21:00 2.46 µg/m3 0.11 µg/m3 92.81 µg/m3 24.84 µg/m3 12.84 µg/m3 17.92 °C 94.62 % 1,006.88 mbar 3.05 m/s 120.17 Deg 0.37 µg/m3
2023-05-23 20:00 1.64 µg/m3 0.16 µg/m3 89.47 µg/m3 23.17 µg/m3 6.37 µg/m3 18.04 °C 94.5 % 1,006.36 mbar 3.45 m/s 116.92 Deg 0.37 µg/m3
2023-05-23 19:00 2.02 µg/m3 0.14 µg/m3 99.69 µg/m3 12.29 µg/m3 7.4 µg/m3 18.36 °C 92.84 % 1,006.13 mbar 3.64 m/s 155.03 Deg 0.4 µg/m3
2023-05-23 18:00 2.82 µg/m3 0.13 µg/m3 108.48 µg/m3 12.35 µg/m3 7.41 µg/m3 18.71 °C 90.78 % 1,006.36 mbar 3.42 m/s 176.58 Deg 0.48 µg/m3
2023-05-23 17:00 1.24 µg/m3 0.14 µg/m3 99.84 µg/m3 20.42 µg/m3 8.68 µg/m3 19.02 °C 87.67 % 1,006.71 mbar 3.73 m/s 193.33 Deg 0.4 µg/m3
2023-05-23 16:00 2.23 µg/m3 0.14 µg/m3 106.47 µg/m3 19.24 µg/m3 6.02 µg/m3 19.17 °C 86.95 % 1,007.07 mbar 4.37 m/s 141 Deg 0.54 µg/m3
2023-05-23 15:00 2.17 µg/m3 0.12 µg/m3 104.98 µg/m3 16.56 µg/m3 5.92 µg/m3 19.14 °C 87.08 % 1,007.47 mbar 4.37 m/s 139.63 Deg 0.55 µg/m3
2023-05-23 14:00 2.46 µg/m3 0.13 µg/m3 101.8 µg/m3 24.92 µg/m3 7.97 µg/m3 19.3 °C 87.24 % 1,007.45 mbar 4.88 m/s 136.75 Deg 0.58 µg/m3
2023-05-23 13:00 3.14 µg/m3 0.12 µg/m3 106.77 µg/m3 22.64 µg/m3 11.34 µg/m3 19.33 °C 87.35 % 1,007.38 mbar 4.56 m/s 137.97 Deg 0.68 µg/m3
2023-05-23 12:00 3.22 µg/m3 0.13 µg/m3 102.48 µg/m3 19.98 µg/m3 17.09 µg/m3 19.2 °C 86.76 % 1,007.43 mbar 5.06 m/s 140.05 Deg 0.7 µg/m3
2023-05-23 11:00 5.68 µg/m3 0.18 µg/m3 98.21 µg/m3 22.66 µg/m3 11.04 µg/m3 19.15 °C 89.12 % 1,007.41 mbar 4.53 m/s 145.7 Deg 1.15 µg/m3
2023-05-23 10:00 5.95 µg/m3 0.14 µg/m3 99.38 µg/m3 17.43 µg/m3 12.15 µg/m3 18.69 °C 91.36 % 1,007.65 mbar 4.18 m/s 140.43 Deg 1.17 µg/m3
2023-05-23 09:00 5.65 µg/m3 0.16 µg/m3 98.07 µg/m3 21.05 µg/m3 5.13 µg/m3 18.22 °C 93.7 % 1,007.07 mbar 3.52 m/s 142.82 Deg 1.03 µg/m3
2023-05-23 08:00 3.93 µg/m3 0.1 µg/m3 97.92 µg/m3 29.19 µg/m3 7.37 µg/m3 17.72 °C 96.07 % 1,006.38 mbar 3.95 m/s 151.72 Deg 0.65 µg/m3
2023-05-23 07:00 9.28 µg/m3 0.14 µg/m3 89.82 µg/m3 22.26 µg/m3 7.39 µg/m3 17.48 °C 97.11 % 1,005.79 mbar 3.05 m/s 263.83 Deg 1.06 µg/m3
2023-05-23 06:00 9.85 µg/m3 0.11 µg/m3 78.94 µg/m3 23.34 µg/m3 8.26 µg/m3 16.83 °C 99.95 % 1,005.45 mbar 2.36 m/s 321.17 Deg 0.74 µg/m3
2023-05-23 05:00 8.49 µg/m3 0.18 µg/m3 76.2 µg/m3 15.63 µg/m3 7.94 µg/m3 16.78 °C 99.92 % 1,005.65 mbar 2.07 m/s 115.23 Deg 0.53 µg/m3
2023-05-23 04:00 6.25 µg/m3 0.23 µg/m3 71.27 µg/m3 16.45 µg/m3 9.97 µg/m3 16.83 °C 99.55 % 1,005.64 mbar 1.97 m/s 42.87 Deg 0.4 µg/m3
2023-05-23 03:00 6.48 µg/m3 0.11 µg/m3 77.93 µg/m3 12.6 µg/m3 12.9 µg/m3 16.69 °C 99.31 % 1,005.94 mbar 2.4 m/s 36.27 Deg 0.43 µg/m3
2023-05-23 02:00 5.92 µg/m3 0.08 µg/m3 79.58 µg/m3 14.39 µg/m3 16.9 µg/m3 17.24 °C 98.23 % 1,006.43 mbar 1.65 m/s 23.87 Deg 0.37 µg/m3
2023-05-23 01:00 6.78 µg/m3 0.11 µg/m3 78.59 µg/m3 17.82 µg/m3 7.66 µg/m3 17.17 °C 94.46 % 1,006.76 mbar 1.14 m/s 93.22 Deg 0.39 µg/m3
2023-05-23 00:00 6.64 µg/m3 0.1 µg/m3 79.38 µg/m3 27.35 µg/m3 9.42 µg/m3 17.1 °C 94.22 % 1,006.56 mbar 1.46 m/s 25.2 Deg 0.49 µg/m3
2023-05-22 23:00 10.21 µg/m3 0.14 µg/m3 79.01 µg/m3 22.15 µg/m3 8.2 µg/m3 17.31 °C 92.12 % 1,006.69 mbar 1.55 m/s 36.3 Deg 0.49 µg/m3
2023-05-22 22:00 11.73 µg/m3 0.19 µg/m3 81.35 µg/m3 30.18 µg/m3 12.92 µg/m3 17.51 °C 90.57 % 1,006.55 mbar 1.53 m/s 27.37 Deg 0.63 µg/m3
2023-05-22 21:00 21.47 µg/m3 0.18 µg/m3 72.52 µg/m3 26.08 µg/m3 7.33 µg/m3 17.67 °C 90.82 % 1,005.91 mbar 1.41 m/s 27.32 Deg 0.89 µg/m3
2023-05-22 20:00 13.02 µg/m3 0.44 µg/m3 86.71 µg/m3 19.74 µg/m3 5.89 µg/m3 17.88 °C 90.16 % 1,005.16 mbar 1.63 m/s 27.87 Deg 0.64 µg/m3
2023-05-22 19:00 11.54 µg/m3 0.23 µg/m3 92.55 µg/m3 19.07 µg/m3 8.89 µg/m3 18.32 °C 87.42 % 1,004.66 mbar 2.45 m/s 27.6 Deg 1.16 µg/m3
2023-05-22 18:00 9.7 µg/m3 0.32 µg/m3 96.51 µg/m3 12.01 µg/m3 5.25 µg/m3 19.01 °C 80.9 % 1,004.38 mbar 2.43 m/s 20.23 Deg 1.19 µg/m3
2023-05-22 17:00 7.44 µg/m3 0.24 µg/m3 104.99 µg/m3 11.23 µg/m3 6.93 µg/m3 19.44 °C 75.98 % 1,004.28 mbar 2.5 m/s 20.9 Deg 1.24 µg/m3
2023-05-22 16:00 6.87 µg/m3 0.27 µg/m3 105.69 µg/m3 12.94 µg/m3 6.98 µg/m3 19.63 °C 73.58 % 1,004.21 mbar 2.9 m/s 34.3 Deg 1.45 µg/m3
2023-05-22 15:00 4.5 µg/m3 0.16 µg/m3 101.43 µg/m3 14.86 µg/m3 9.82 µg/m3 19.73 °C 75.01 % 1,004.04 mbar 2.39 m/s 288.37 Deg 0.92 µg/m3
2023-05-22 14:00 8.04 µg/m3 0.08 µg/m3 99.3 µg/m3 21.73 µg/m3 5.31 µg/m3 19.38 °C 84.27 % 1,004.05 mbar 2.43 m/s 36.35 Deg 1.48 µg/m3
2023-05-22 13:00 6.22 µg/m3 0.07 µg/m3 96.82 µg/m3 17.87 µg/m3 4.91 µg/m3 18.66 °C 90.7 % 1,004.06 mbar 2.34 m/s 238.95 Deg 1.09 µg/m3
2023-05-22 12:00 13.82 µg/m3 0.22 µg/m3 83.59 µg/m3 22.28 µg/m3 6.28 µg/m3 18.09 °C 93.27 % 1,004.16 mbar 1.99 m/s 194.17 Deg 1.83 µg/m3
2023-05-22 11:00 12.04 µg/m3 0.19 µg/m3 87.23 µg/m3 25 µg/m3 8.39 µg/m3 18.03 °C 92.07 % 1,003.98 mbar 1.58 m/s 89.66 Deg 2.82 µg/m3
2023-05-22 10:00 10.78 µg/m3 0.16 µg/m3 83.61 µg/m3 37.76 µg/m3 10.55 µg/m3 17.45 °C 97.03 % 1,003.66 mbar 1.37 m/s 30.25 Deg 4.05 µg/m3
2023-05-22 09:00 12.74 µg/m3 0.15 µg/m3 79.99 µg/m3 32.71 µg/m3 15.55 µg/m3 16.62 °C 99.9 % 1,003.56 mbar 0.88 m/s 241.82 Deg 1.71 µg/m3
2023-05-22 08:00 22.57 µg/m3 0.3 µg/m3 70.2 µg/m3 30.5 µg/m3 7.72 µg/m3 16.43 °C 99.85 % 1,003.37 mbar 1.6 m/s 176.7 Deg 2.92 µg/m3
2023-05-22 07:00 40.72 µg/m3 0.35 µg/m3 41.12 µg/m3 18.81 µg/m3 9.46 µg/m3 16.86 °C 99.91 % 1,002.98 mbar 1.56 m/s 332.18 Deg 7.46 µg/m3
2023-05-22 06:00 39.82 µg/m3 0.36 µg/m3 36.94 µg/m3 17.54 µg/m3 9.38 µg/m3 16.76 °C 99.9 % 1,002.72 mbar 1.3 m/s 312.07 Deg 6.63 µg/m3
2023-05-22 05:00 16.7 µg/m3 0.11 µg/m3 51.89 µg/m3 12.67 µg/m3 7.37 µg/m3 16.74 °C 99.9 % 1,002.67 mbar 0.72 m/s 301 Deg 1.06 µg/m3
2023-05-22 04:00 6.45 µg/m3 0.2 µg/m3 65.74 µg/m3 16.75 µg/m3 11.28 µg/m3 16.91 °C 99.9 % 1,002.76 mbar 1.1 m/s 297.27 Deg 0.46 µg/m3
2023-05-22 03:00 5.69 µg/m3 0.15 µg/m3 67.95 µg/m3 11.42 µg/m3 11.73 µg/m3 16.85 °C 99.9 % 1,002.84 mbar 1.36 m/s 315.37 Deg 0.46 µg/m3
2023-05-22 02:00 12.98 µg/m3 0.15 µg/m3 66.63 µg/m3 10.2 µg/m3 9.83 µg/m3 16.88 °C 99.9 % 1,002.85 mbar 1.38 m/s 319.38 Deg 0.51 µg/m3
2023-05-22 01:00 22.13 µg/m3 0.2 µg/m3 57.93 µg/m3 14.17 µg/m3 7.14 µg/m3 16.86 °C 99.9 % 1,002.75 mbar 1.47 m/s 337.27 Deg 0.46 µg/m3
2023-05-22 00:00 10.36 µg/m3 0.18 µg/m3 76.42 µg/m3 19.09 µg/m3 8.98 µg/m3 17.14 °C 99.22 % 1,002.75 mbar 1.93 m/s 341.13 Deg 0.4 µg/m3
2023-05-21 23:00 21.26 µg/m3 0.26 µg/m3 64.11 µg/m3 27.92 µg/m3 6.76 µg/m3 17.04 °C 99.56 % 1,002.91 mbar 1.45 m/s 338.13 Deg 1.08 µg/m3
2023-05-21 22:00 13.39 µg/m3 0.17 µg/m3 75.04 µg/m3 22 µg/m3 8.25 µg/m3 16.7 °C 99.9 % 1,002.67 mbar 1.35 m/s 341.68 Deg 0.58 µg/m3
2023-05-21 21:00 10.34 µg/m3 0.19 µg/m3 84.64 µg/m3 27.31 µg/m3 7.54 µg/m3 17.05 °C 99.9 % 1,002.40 mbar 2.66 m/s 107.93 Deg 0.96 µg/m3
2023-05-21 20:00 6.23 µg/m3 0.09 µg/m3 91.88 µg/m3 20.29 µg/m3 9.57 µg/m3 17.4 °C 99.96 % 1,001.72 mbar 3.7 m/s 174.9 Deg 0.8 µg/m3
2023-05-21 19:00 8.59 µg/m3 0.26 µg/m3 87.78 µg/m3 19.75 µg/m3 8.58 µg/m3 17.51 °C 99.85 % 1,001.10 mbar 3.89 m/s 345.2 Deg 1.05 µg/m3
2023-05-21 18:00 8.23 µg/m3 0.2 µg/m3 87.91 µg/m3 27.85 µg/m3 10.68 µg/m3 17.72 °C 99.91 % 1,000.46 mbar 3.84 m/s 338.6 Deg 1.14 µg/m3
2023-05-21 17:00 9.73 µg/m3 0.23 µg/m3 90.02 µg/m3 42.6 µg/m3 16.97 µg/m3 17.87 °C 99.9 % 1,000.12 mbar 3.44 m/s 260.87 Deg 1.08 µg/m3
2023-05-21 16:00 5.92 µg/m3 0.29 µg/m3 97.22 µg/m3 44.2 µg/m3 9.12 µg/m3 18.25 °C 97.44 % 999.50 mbar 4.17 m/s 177.27 Deg 0.99 µg/m3
2023-05-21 15:00 4.28 µg/m3 0.42 µg/m3 98.74 µg/m3 31.71 µg/m3 13.86 µg/m3 19.16 °C 92.45 % 998.76 mbar 4.38 m/s 182.83 Deg 1.01 µg/m3
2023-05-21 14:00 4.17 µg/m3 0.2 µg/m3 103.68 µg/m3 18.66 µg/m3 8.27 µg/m3 19.7 °C 87.06 % 998.30 mbar 4.54 m/s 266.43 Deg 0.94 µg/m3
2023-05-21 13:00 5.11 µg/m3 0.02 µg/m3 99.85 µg/m3 13.87 µg/m3 5.23 µg/m3 18.57 °C 94.75 % 997.80 mbar 3.92 m/s 186.2 Deg 1.04 µg/m3
2023-05-21 12:00 8.51 µg/m3 0.1 µg/m3 97.44 µg/m3 20.39 µg/m3 6.11 µg/m3 19.02 °C 95.54 % 997.25 mbar 2.17 m/s 222.93 Deg 1.26 µg/m3
2023-05-21 11:00 8.77 µg/m3 0.05 µg/m3 92.29 µg/m3 24.11 µg/m3 6.78 µg/m3 18.25 °C 97.69 % 997.55 mbar 2.83 m/s 254.7 Deg 1.29 µg/m3
2023-05-21 10:00 7.15 µg/m3 0.09 µg/m3 88.15 µg/m3 36.22 µg/m3 9.62 µg/m3 18.56 °C 91.96 % 997.87 mbar 3.27 m/s 257.88 Deg 1.2 µg/m3
2023-05-21 09:00 6.42 µg/m3 0.11 µg/m3 86.01 µg/m3 40.01 µg/m3 13.43 µg/m3 18.77 °C 90.19 % 997.73 mbar 3.84 m/s 284.82 Deg 1.33 µg/m3
2023-05-21 08:00 9.02 µg/m3 0.13 µg/m3 74.83 µg/m3 35.4 µg/m3 9.78 µg/m3 17.94 °C 98.47 % 997.76 mbar 2.67 m/s 302.07 Deg 1.46 µg/m3
2023-05-21 07:00 9.31 µg/m3 0.09 µg/m3 76.48 µg/m3 25.88 µg/m3 7.44 µg/m3 17.54 °C 99.9 % 997.67 mbar 2.11 m/s 311.18 Deg 1.24 µg/m3
2023-05-21 06:00 8.49 µg/m3 0.1 µg/m3 79.44 µg/m3 29.65 µg/m3 6.82 µg/m3 17.27 °C 99.9 % 997.56 mbar 2.06 m/s 303.55 Deg 0.74 µg/m3
2023-05-21 05:00 4.62 µg/m3 0.08 µg/m3 82.39 µg/m3 38.92 µg/m3 10.02 µg/m3 17.77 °C 98.52 % 997.27 mbar 1.97 m/s 309.2 Deg 0.47 µg/m3
2023-05-21 04:00 3.25 µg/m3 0.11 µg/m3 83.22 µg/m3 46.22 µg/m3 15.72 µg/m3 17.86 °C 95.51 % 997.10 mbar 1.71 m/s 306.12 Deg 0.41 µg/m3
2023-05-21 03:00 2.65 µg/m3 0.08 µg/m3 85.98 µg/m3 64.32 µg/m3 25.62 µg/m3 17.79 °C 95.09 % 997.17 mbar 2.18 m/s 296.28 Deg 0.38 µg/m3
2023-05-21 02:00 3.37 µg/m3 0.05 µg/m3 88.05 µg/m3 49.11 µg/m3 13.44 µg/m3 17.77 °C 94.87 % 997.40 mbar 2.26 m/s 285.93 Deg 0.36 µg/m3
2023-05-21 01:00 10.61 µg/m3 0.07 µg/m3 79.46 µg/m3 44.71 µg/m3 15.02 µg/m3 17.72 °C 91.9 % 997.83 mbar 1.29 m/s 287.98 Deg 0.42 µg/m3
2023-05-21 00:00 16.01 µg/m3 0.15 µg/m3 71.28 µg/m3 56.28 µg/m3 24 µg/m3 17.79 °C 88.92 % 998.15 mbar 1.01 m/s 308.55 Deg 0.51 µg/m3
2023-05-20 23:00 18.47 µg/m3 0.35 µg/m3 71.1 µg/m3 37.64 µg/m3 7.95 µg/m3 17.92 °C 90.22 % 998.36 mbar 1.29 m/s 306.32 Deg 0.75 µg/m3
2023-05-20 22:00 9.75 µg/m3 0.11 µg/m3 86.36 µg/m3 29.4 µg/m3 7.34 µg/m3 18.23 °C 88.68 % 998.07 mbar 1.65 m/s 288.12 Deg 0.48 µg/m3
2023-05-20 21:00 11.89 µg/m3 0.23 µg/m3 88.36 µg/m3 23.71 µg/m3 8.7 µg/m3 18.49 °C 86.24 % 997.87 mbar 2.12 m/s 281.77 Deg 0.61 µg/m3
2023-05-20 20:00 9.58 µg/m3 0.27 µg/m3 93.14 µg/m3 16.82 µg/m3 12.23 µg/m3 18.93 °C 78.68 % 997.23 mbar 3.04 m/s 276.17 Deg 0.64 µg/m3
2023-05-20 19:00 9.3 µg/m3 0.26 µg/m3 99.27 µg/m3 20.14 µg/m3 5.96 µg/m3 19.57 °C 71.49 % 996.71 mbar 3.71 m/s 290.12 Deg 0.93 µg/m3
2023-05-20 18:00 8.23 µg/m3 0.2 µg/m3 101.61 µg/m3 21.81 µg/m3 8.39 µg/m3 20.1 °C 72.22 % 996.22 mbar 4.28 m/s 288.52 Deg 1.17 µg/m3
2023-05-20 17:00 6.37 µg/m3 0.12 µg/m3 104.54 µg/m3 31.9 µg/m3 11.25 µg/m3 20.57 °C 71.28 % 995.90 mbar 3.94 m/s 290.52 Deg 1.11 µg/m3
2023-05-20 16:00 5.35 µg/m3 0.11 µg/m3 113.09 µg/m3 52.94 µg/m3 14.29 µg/m3 20.72 °C 71.38 % 995.81 mbar 4.23 m/s 277.7 Deg 0.98 µg/m3
2023-05-20 15:00 5.3 µg/m3 0.06 µg/m3 110.28 µg/m3 93.81 µg/m3 21.42 µg/m3 20.83 °C 75.68 % 995.53 mbar 4.3 m/s 274.87 Deg 1 µg/m3
2023-05-20 14:00 5.58 µg/m3 0.15 µg/m3 103.84 µg/m3 110.74 µg/m3 25.43 µg/m3 22.06 °C 72.15 % 994.78 mbar 3.98 m/s 255.67 Deg 1.11 µg/m3
2023-05-20 13:00 6.75 µg/m3 0.11 µg/m3 96.91 µg/m3 147.65 µg/m3 31.31 µg/m3 22.76 °C 73.25 % 994.47 mbar 2.47 m/s 289.07 Deg 1.52 µg/m3
2023-05-20 12:00 7.36 µg/m3 0.19 µg/m3 92.9 µg/m3 164.91 µg/m3 34.44 µg/m3 21.74 °C 80.98 % 994.45 mbar 3.23 m/s 246.73 Deg 1.62 µg/m3
2023-05-20 11:00 17.24 µg/m3 0.36 µg/m3 77.73 µg/m3 143.4 µg/m3 30.35 µg/m3 21.02 °C 84.54 % 994.04 mbar 2.97 m/s 241.32 Deg 3.06 µg/m3
2023-05-20 10:00 14.26 µg/m3 0.3 µg/m3 76.99 µg/m3 115.58 µg/m3 27.09 µg/m3 20.29 °C 88.02 % 993.41 mbar 4.24 m/s 196.85 Deg 1.98 µg/m3
2023-05-20 09:00 13.3 µg/m3 0.25 µg/m3 81.79 µg/m3 87.98 µg/m3 17.63 µg/m3 20.18 °C 88.07 % 992.56 mbar 4.53 m/s 163.02 Deg 1.35 µg/m3
2023-05-20 08:00 7 µg/m3 0.15 µg/m3 88.54 µg/m3 70.6 µg/m3 18.64 µg/m3 19.86 °C 87.75 % 991.94 mbar 4.42 m/s 143.78 Deg 0.77 µg/m3
2023-05-20 07:00 2.13 µg/m3 0.13 µg/m3 96.41 µg/m3 67.34 µg/m3 15.32 µg/m3 19.58 °C 84.92 % 992.37 mbar 5.57 m/s 117.02 Deg 0.44 µg/m3
2023-05-20 06:00 2.57 µg/m3 0.09 µg/m3 98.31 µg/m3 67.72 µg/m3 14.33 µg/m3 20.03 °C 79.75 % 991.90 mbar 4.69 m/s 151.15 Deg 0.33 µg/m3
2023-05-20 05:00 1.58 µg/m3 0.05 µg/m3 100.89 µg/m3 55.82 µg/m3 18.96 µg/m3 19.86 °C 79.46 % 992.35 mbar 5.7 m/s 183.21 Deg 0.32 µg/m3
2023-05-20 04:00 0.85 µg/m3 0.11 µg/m3 99.67 µg/m3 47.22 µg/m3 11.1 µg/m3 19.83 °C 79.81 % 994.40 mbar 3.93 m/s 173.45 Deg 0.27 µg/m3
2023-05-20 03:00 0.72 µg/m3 0.07 µg/m3 102.21 µg/m3 22.66 µg/m3 11 µg/m3 19.7 °C 79.81 % 992.25 mbar 6.66 m/s 146.07 Deg 0.29 µg/m3
2023-05-20 02:00 0.79 µg/m3 0.07 µg/m3 101.27 µg/m3 20.16 µg/m3 9.3 µg/m3 20.22 °C 74.13 % 991.10 mbar 11.67 m/s 122.33 Deg 0.29 µg/m3
2023-05-20 01:00 0.6 µg/m3 0.11 µg/m3 101.36 µg/m3 31.85 µg/m3 7.91 µg/m3 19.64 °C 79.65 % 993.01 mbar 10.24 m/s 124.62 Deg 0.28 µg/m3
2023-05-20 00:00 0.49 µg/m3 0.09 µg/m3 105.06 µg/m3 35.19 µg/m3 9.84 µg/m3 19.65 °C 78.42 % 995.31 mbar 7.36 m/s 121 Deg 0.29 µg/m3
2023-05-19 23:00 0.67 µg/m3 0.1 µg/m3 106.33 µg/m3 53.04 µg/m3 16.21 µg/m3 19.44 °C 79.97 % 996.77 mbar 5.66 m/s 172.55 Deg 0.29 µg/m3
2023-05-19 22:00 1.46 µg/m3 0.05 µg/m3 107.08 µg/m3 43.96 µg/m3 9.9 µg/m3 19.16 °C 83.16 % 997.49 mbar 3.77 m/s 252.7 Deg 0.32 µg/m3
2023-05-19 21:00 0.78 µg/m3 0.07 µg/m3 103.64 µg/m3 53.91 µg/m3 11.19 µg/m3 18.75 °C 86.87 % 998.16 mbar 5.07 m/s 166.75 Deg 0.28 µg/m3
2023-05-19 20:00 1.38 µg/m3 0.11 µg/m3 102.39 µg/m3 37.12 µg/m3 7.68 µg/m3 18.66 °C 87.66 % 998.54 mbar 5.27 m/s 185.73 Deg 0.45 µg/m3
2023-05-19 19:00 1.25 µg/m3 0.09 µg/m3 100.94 µg/m3 28.99 µg/m3 10.91 µg/m3 18.65 °C 88.74 % 998.91 mbar 6.05 m/s 212.53 Deg 0.3 µg/m3
2023-05-19 18:00 1.41 µg/m3 0.11 µg/m3 102.14 µg/m3 26.33 µg/m3 7.59 µg/m3 18.84 °C 87.9 % 999.99 mbar 7.72 m/s 129.63 Deg 0.33 µg/m3
2023-05-19 17:00 1.38 µg/m3 0.11 µg/m3 106.66 µg/m3 39.88 µg/m3 9.59 µg/m3 19.04 °C 87.8 % 1,000.49 mbar 7.26 m/s 175.88 Deg 0.34 µg/m3
2023-05-19 16:00 1.41 µg/m3 0.1 µg/m3 109.73 µg/m3 26.91 µg/m3 6.99 µg/m3 19.39 °C 86.13 % 1,001.55 mbar 8.54 m/s 128.9 Deg 0.36 µg/m3
2023-05-19 15:00 1.67 µg/m3 0.12 µg/m3 111.9 µg/m3 32.78 µg/m3 6.28 µg/m3 19.52 °C 83.76 % 1,001.52 mbar 8.48 m/s 149.57 Deg 0.36 µg/m3
2023-05-19 14:00 4.6 µg/m3 0.12 µg/m3 108.99 µg/m3 32.77 µg/m3 8.96 µg/m3 19.97 °C 79.96 % 1,003.17 mbar 9.01 m/s 121.25 Deg 0.81 µg/m3
2023-05-19 13:00 1.37 µg/m3 0.15 µg/m3 111.68 µg/m3 35.49 µg/m3 7.47 µg/m3 19.73 °C 79.81 % 1,003.85 mbar 8.78 m/s 125.78 Deg 0.35 µg/m3
2023-05-19 12:00 2.2 µg/m3 0.15 µg/m3 111.87 µg/m3 31.48 µg/m3 10.19 µg/m3 19.65 °C 80.73 % 1,004.24 mbar 8.65 m/s 115.03 Deg 0.44 µg/m3
2023-05-19 11:00 2.27 µg/m3 0.17 µg/m3 110.39 µg/m3 35.12 µg/m3 13.36 µg/m3 20.03 °C 79.62 % 1,005.11 mbar 6.35 m/s 164.47 Deg 0.5 µg/m3
2023-05-19 10:00 5.11 µg/m3 0.21 µg/m3 107.6 µg/m3 34.77 µg/m3 6.64 µg/m3 19.98 °C 78.99 % 1,005.16 mbar 5.55 m/s 239.53 Deg 1.26 µg/m3
2023-05-19 09:00 4.34 µg/m3 0.15 µg/m3 103.78 µg/m3 24.34 µg/m3 8.83 µg/m3 19.47 °C 79.52 % 1,004.27 mbar 6.96 m/s 158.3 Deg 0.64 µg/m3
2023-05-19 08:00 5.66 µg/m3 0.15 µg/m3 101.2 µg/m3 21.28 µg/m3 6.01 µg/m3 18.92 °C 80.12 % 1,004.27 mbar 6.95 m/s 188.63 Deg 0.53 µg/m3
2023-05-19 07:00 9.77 µg/m3 0.21 µg/m3 95.74 µg/m3 23.09 µg/m3 5.64 µg/m3 18.87 °C 80.68 % 1,004.32 mbar 6.68 m/s 209.7 Deg 0.79 µg/m3
2023-05-19 06:00 5.39 µg/m3 0.17 µg/m3 103.82 µg/m3 18.86 µg/m3 5.82 µg/m3 18.67 °C 80.21 % 1,005.13 mbar 3.81 m/s 312.68 Deg 0.45 µg/m3
2023-05-19 05:00 2.73 µg/m3 0.15 µg/m3 107.09 µg/m3 18.96 µg/m3 5.52 µg/m3 18.34 °C 81.73 % 1,004.18 mbar 5.63 m/s 179.3 Deg 0.29 µg/m3
2023-05-19 04:00 1.99 µg/m3 0.11 µg/m3 106.58 µg/m3 21.68 µg/m3 7.45 µg/m3 18.06 °C 85.06 % 1,004.15 mbar 6.57 m/s 125.03 Deg 0.29 µg/m3
2023-05-19 03:00 1.77 µg/m3 0.11 µg/m3 104.1 µg/m3 11.45 µg/m3 9.82 µg/m3 17.88 °C 88.42 % 1,005.10 mbar 5.5 m/s 126.12 Deg 0.28 µg/m3
2023-05-19 02:00 3.39 µg/m3 0.15 µg/m3 100.59 µg/m3 10.12 µg/m3 13.25 µg/m3 17.82 °C 89.97 % 1,005.79 mbar 4.74 m/s 115.42 Deg 0.3 µg/m3
2023-05-19 01:00 1.85 µg/m3 0.14 µg/m3 103.03 µg/m3 14.62 µg/m3 8.28 µg/m3 18.13 °C 86.34 % 1,006.25 mbar 5.44 m/s 125.63 Deg 0.3 µg/m3
2023-05-19 00:00 1.53 µg/m3 0.11 µg/m3 101.79 µg/m3 23.73 µg/m3 11.79 µg/m3 17.99 °C 89.19 % 1,006.69 mbar 4.94 m/s 111.8 Deg 0.28 µg/m3
2023-05-18 23:00 3.14 µg/m3 0.15 µg/m3 96.75 µg/m3 26.81 µg/m3 7.21 µg/m3 17.96 °C 92.43 % 1,006.65 mbar 5.3 m/s 123.48 Deg 0.29 µg/m3
2023-05-18 22:00 2.61 µg/m3 0.12 µg/m3 101.82 µg/m3 19.37 µg/m3 7.04 µg/m3 18.17 °C 88.55 % 1,006.29 mbar 5.63 m/s 119.2 Deg 0.29 µg/m3
2023-05-18 21:00 3.16 µg/m3 0.15 µg/m3 104.39 µg/m3 23.36 µg/m3 5.41 µg/m3 18.08 °C 90.74 % 1,005.55 mbar 6.78 m/s 118.13 Deg 0.29 µg/m3
2023-05-18 20:00 3.4 µg/m3 0.09 µg/m3 106.39 µg/m3 25.53 µg/m3 5.02 µg/m3 18.08 °C 91.02 % 1,005.30 mbar 7.14 m/s 116.7 Deg 0.32 µg/m3
2023-05-18 19:00 6 µg/m3 0.15 µg/m3 102.97 µg/m3 13.53 µg/m3 5.23 µg/m3 18.54 °C 84.8 % 1,005.50 mbar 7.2 m/s 123.03 Deg 0.39 µg/m3
2023-05-18 18:00 5.31 µg/m3 0.48 µg/m3 102.12 µg/m3 13.6 µg/m3 7.57 µg/m3 19.2 °C 76.08 % 1,005.85 mbar 6.35 m/s 138.3 Deg 0.54 µg/m3
2023-05-18 17:00 5.49 µg/m3 0.53 µg/m3 100.41 µg/m3 21.03 µg/m3 9.21 µg/m3 19.37 °C 79.08 % 1,006.31 mbar 5.92 m/s 131.88 Deg 0.74 µg/m3
2023-05-18 16:00 1.52 µg/m3 1.4 µg/m3 102.61 µg/m3 27.58 µg/m3 5.1 µg/m3 19.48 °C 80.52 % 1,006.63 mbar 5.89 m/s 110.5 Deg 0.38 µg/m3
2023-05-18 15:00 2.89 µg/m3 0.17 µg/m3 104.59 µg/m3 17.16 µg/m3 6.45 µg/m3 19.52 °C 80.1 % 1,007.03 mbar 5.86 m/s 138.98 Deg 0.54 µg/m3
2023-05-18 14:00 2.33 µg/m3 0.2 µg/m3 102.23 µg/m3 14.33 µg/m3 8.6 µg/m3 20.37 °C 68.56 % 1,007.61 mbar 5.14 m/s 133.37 Deg 0.55 µg/m3
2023-05-18 13:00 2.76 µg/m3 0.56 µg/m3 102.53 µg/m3 16.48 µg/m3 7.65 µg/m3 20.16 °C 70.16 % 1,008.30 mbar 4.97 m/s 141.05 Deg 0.62 µg/m3
2023-05-18 12:00 3.12 µg/m3 0.22 µg/m3 104.16 µg/m3 25.44 µg/m3 10.19 µg/m3 20.08 °C 67.6 % 1,008.60 mbar 4.77 m/s 133.23 Deg 0.56 µg/m3
2023-05-18 11:00 10.92 µg/m3 0.35 µg/m3 96.88 µg/m3 20.16 µg/m3 10.31 µg/m3 19.72 °C 68.46 % 1,008.83 mbar 3.89 m/s 140.17 Deg 1.86 µg/m3
2023-05-18 10:00 11.88 µg/m3 0.28 µg/m3 93.78 µg/m3 26.87 µg/m3 5.36 µg/m3 20.39 °C 62.69 % 1,008.57 mbar 2.29 m/s 236.4 Deg 3.93 µg/m3
2023-05-18 09:00 18.21 µg/m3 0.34 µg/m3 83.49 µg/m3 20.39 µg/m3 5.68 µg/m3 20.27 °C 58.56 % 1,008.44 mbar 1.51 m/s 174.52 Deg 3.17 µg/m3
2023-05-18 08:00 37.88 µg/m3 0.43 µg/m3 63.47 µg/m3 21.33 µg/m3 7.37 µg/m3 18.54 °C 73.91 % 1,008.21 mbar 0.85 m/s 91.97 Deg 4.9 µg/m3
2023-05-18 07:00 22.05 µg/m3 0.32 µg/m3 70.98 µg/m3 24.39 µg/m3 5.06 µg/m3 17.42 °C 84.61 % 1,007.84 mbar 1.13 m/s 193.77 Deg 1.64 µg/m3
2023-05-18 06:00 23.7 µg/m3 0.33 µg/m3 60.89 µg/m3 18.17 µg/m3 5.95 µg/m3 16.65 °C 90.83 % 1,007.63 mbar 1.91 m/s 206.92 Deg 0.94 µg/m3
2023-05-18 05:00 12.02 µg/m3 0.3 µg/m3 70.54 µg/m3 20.06 µg/m3 5.77 µg/m3 16.71 °C 93.07 % 1,007.21 mbar 1.05 m/s 244.3 Deg 0.56 µg/m3
2023-05-18 04:00 4.08 µg/m3 0.17 µg/m3 85.73 µg/m3 20.72 µg/m3 6.52 µg/m3 16.66 °C 92.31 % 1,007.82 mbar 1.48 m/s 217.48 Deg 0.35 µg/m3
2023-05-18 03:00 4.61 µg/m3 0.19 µg/m3 84.21 µg/m3 14.86 µg/m3 6.6 µg/m3 16.53 °C 90.25 % 1,008.07 mbar 1.42 m/s 256.8 Deg 0.38 µg/m3
2023-05-18 02:00 3.71 µg/m3 0.23 µg/m3 89.3 µg/m3 18.96 µg/m3 8.2 µg/m3 16.83 °C 86.05 % 1,008.47 mbar 1.54 m/s 267.79 Deg 0.31 µg/m3
2023-05-18 01:00 3.25 µg/m3 0.18 µg/m3 89.28 µg/m3 23.32 µg/m3 9.46 µg/m3 16.69 °C 89.78 % 1,008.79 mbar 1.79 m/s 278 Deg 0.31 µg/m3
2023-05-18 00:00 9.46 µg/m3 0.18 µg/m3 79.93 µg/m3 34.3 µg/m3 7.2 µg/m3 16.72 °C 90.1 % 1,008.86 mbar 1.69 m/s 257.07 Deg 0.37 µg/m3
2023-05-17 23:00 12.84 µg/m3 0.24 µg/m3 81.12 µg/m3 30.84 µg/m3 8.55 µg/m3 17.2 °C 84.3 % 1,008.77 mbar 1.13 m/s 279.77 Deg 0.42 µg/m3
2023-05-17 22:00 14.46 µg/m3 0.36 µg/m3 78.73 µg/m3 28.25 µg/m3 8.88 µg/m3 17.3 °C 81.9 % 1,008.71 mbar 1.29 m/s 256.23 Deg 0.58 µg/m3
2023-05-17 21:00 12.65 µg/m3 0.32 µg/m3 86.45 µg/m3 29.24 µg/m3 8.69 µg/m3 17.71 °C 77.56 % 1,008.18 mbar 1.33 m/s 265.32 Deg 0.66 µg/m3
2023-05-17 20:00 13.21 µg/m3 0.34 µg/m3 88 µg/m3 30.22 µg/m3 8.66 µg/m3 18.13 °C 74.13 % 1,007.66 mbar 1.68 m/s 276.48 Deg 0.51 µg/m3
2023-05-17 19:00 13.33 µg/m3 0.38 µg/m3 91.07 µg/m3 31.71 µg/m3 5.14 µg/m3 19.03 °C 64.81 % 1,007.43 mbar 2.45 m/s 307.27 Deg 1.39 µg/m3
2023-05-17 18:00 13.03 µg/m3 0.38 µg/m3 92.22 µg/m3 28.9 µg/m3 5.17 µg/m3 20.12 °C 58.12 % 1,007.15 mbar 3.37 m/s 315.83 Deg 2.2 µg/m3
2023-05-17 17:00 9.53 µg/m3 0.44 µg/m3 94.37 µg/m3 24.78 µg/m3 6.15 µg/m3 20.66 °C 55.51 % 1,007.24 mbar 3.15 m/s 316.98 Deg 1.91 µg/m3
2023-05-17 16:00 10.57 µg/m3 0.41 µg/m3 93.51 µg/m3 20.35 µg/m3 7.14 µg/m3 20.96 °C 54.81 % 1,007.30 mbar 3.38 m/s 317.1 Deg 2.16 µg/m3
2023-05-17 15:00 11.68 µg/m3 0.4 µg/m3 90.52 µg/m3 25.02 µg/m3 5.47 µg/m3 21.19 °C 53.3 % 1,007.49 mbar 4.07 m/s 313.02 Deg 3.06 µg/m3
2023-05-17 14:00 9.84 µg/m3 0.25 µg/m3 90.99 µg/m3 19.49 µg/m3 5.7 µg/m3 21.24 °C 54.13 % 1,007.66 mbar 4.55 m/s 297.77 Deg 2.28 µg/m3
2023-05-17 13:00 8.85 µg/m3 0.24 µg/m3 90.29 µg/m3 22.51 µg/m3 6.02 µg/m3 21.26 °C 56.16 % 1,007.75 mbar 4.16 m/s 298.1 Deg 2.13 µg/m3
2023-05-17 12:00 8.79 µg/m3 0.27 µg/m3 1 µg/m3 24.47 µg/m3 7.1 µg/m3 20.92 °C 57.32 % 1,007.98 mbar 4.18 m/s 300.05 Deg 2.13 µg/m3
2023-05-17 11:00 8.78 µg/m3 0.26 µg/m3 0 µg/m3 31.06 µg/m3 6.8 µg/m3 20.33 °C 61.58 % 1,007.81 mbar 4.6 m/s 299.52 Deg 2.17 µg/m3
2023-05-17 10:00 9.32 µg/m3 0.38 µg/m3 0 µg/m3 28.98 µg/m3 9.16 µg/m3 19.85 °C 61.71 % 1,007.44 mbar 4.55 m/s 301.07 Deg 2.12 µg/m3
2023-05-17 09:00 10.55 µg/m3 0.29 µg/m3 0 µg/m3 28.62 µg/m3 11.28 µg/m3 19.21 °C 65.76 % 1,007.26 mbar 4.22 m/s 298.08 Deg 2.39 µg/m3
2023-05-17 08:00 15.95 µg/m3 0.41 µg/m3 0 µg/m3 35.29 µg/m3 10.62 µg/m3 18.61 °C 68.94 % 1,006.72 mbar 3.84 m/s 291.18 Deg 3.29 µg/m3
2023-05-17 07:00 21.79 µg/m3 0.43 µg/m3 0 µg/m3 27.42 µg/m3 8.99 µg/m3 17.68 °C 76.4 % 1,006.22 mbar 3.87 m/s 292.72 Deg 4.15 µg/m3
2023-05-17 06:00 22.64 µg/m3 0.39 µg/m3 0 µg/m3 26.53 µg/m3 9.39 µg/m3 16.78 °C 84.25 % 1,005.86 mbar 2.94 m/s 292.68 Deg 2.83 µg/m3
2023-05-17 05:00 10.83 µg/m3 0.39 µg/m3 0 µg/m3 21.04 µg/m3 6.35 µg/m3 16.42 °C 86.14 % 1,005.65 mbar 2.29 m/s 292.95 Deg 0.75 µg/m3
2023-05-17 04:00 4.03 µg/m3 0.27 µg/m3 0 µg/m3 12.82 µg/m3 6.98 µg/m3 16.45 °C 86.91 % 1,005.42 mbar 2.65 m/s 290.67 Deg 0.39 µg/m3
2023-05-17 03:00 3.83 µg/m3 0.34 µg/m3 0 µg/m3 10.5 µg/m3 7.35 µg/m3 16.56 °C 87.19 % 1,005.36 mbar 2.55 m/s 294.35 Deg 0.35 µg/m3
2023-05-17 02:00 5.03 µg/m3 0.25 µg/m3 0 µg/m3 13.38 µg/m3 4.54 µg/m3 16.61 °C 91.11 % 1,005.46 mbar 1.8 m/s 299.63 Deg 0.38 µg/m3
2023-05-17 01:00 3.64 µg/m3 0.21 µg/m3 0 µg/m3 16.9 µg/m3 5.62 µg/m3 17.16 °C 88.65 % 1,005.45 mbar 1.81 m/s 292.27 Deg 0.33 µg/m3
2023-05-17 00:00 3.06 µg/m3 0.26 µg/m3 0 µg/m3 22.06 µg/m3 8.36 µg/m3 17.26 °C 88.89 % 1,005.42 mbar 2.25 m/s 271.63 Deg 0.33 µg/m3
2023-05-16 23:00 3.57 µg/m3 0.26 µg/m3 0 µg/m3 33.96 µg/m3 13.29 µg/m3 17.51 °C 88.73 % 1,005.38 mbar 2.7 m/s 269.7 Deg 0.34 µg/m3
2023-05-16 22:00 5.18 µg/m3 0.25 µg/m3 0 µg/m3 28.32 µg/m3 7.94 µg/m3 17.42 °C 89.11 % 1,005.27 mbar 2.4 m/s 250.45 Deg 0.4 µg/m3
2023-05-16 21:00 8.72 µg/m3 0.29 µg/m3 0 µg/m3 29.76 µg/m3 6.24 µg/m3 17.77 °C 84.42 % 1,004.79 mbar 2.36 m/s 255.1 Deg 0.41 µg/m3
2023-05-16 20:00 11.18 µg/m3 0.37 µg/m3 0 µg/m3 23.56 µg/m3 7.52 µg/m3 18.18 °C 79.72 % 1,004.17 mbar 2.81 m/s 277.15 Deg 0.62 µg/m3
2023-05-16 19:00 9.89 µg/m3 0.31 µg/m3 0 µg/m3 29.64 µg/m3 10.15 µg/m3 18.76 °C 76.34 % 1,003.64 mbar 3.26 m/s 273.27 Deg 0.63 µg/m3
2023-05-16 18:00 9.33 µg/m3 0.32 µg/m3 0 µg/m3 29.01 µg/m3 13.5 µg/m3 19.51 °C 70.92 % 1,003.16 mbar 3.77 m/s 282 Deg 1.02 µg/m3
2023-05-16 17:00 7.43 µg/m3 0.31 µg/m3 0 µg/m3 22.92 µg/m3 5.82 µg/m3 19.71 °C 70.85 % 1,002.94 mbar 4.22 m/s 276 Deg 1.32 µg/m3
2023-05-16 16:00 7.2 µg/m3 0.3 µg/m3 0 µg/m3 23.89 µg/m3 7.93 µg/m3 19.95 °C 67.75 % 1,002.73 mbar 5.45 m/s 278.15 Deg 1.17 µg/m3
2023-05-16 15:00 7.97 µg/m3 0.28 µg/m3 0 µg/m3 26.92 µg/m3 11.12 µg/m3 19.6 °C 70.52 % 1,002.69 mbar 6.22 m/s 271.93 Deg 1.64 µg/m3
2023-05-16 14:00 7.98 µg/m3 0.24 µg/m3 0 µg/m3 21 µg/m3 16.53 µg/m3 19.53 °C 72.88 % 1,002.66 mbar 6.08 m/s 283.07 Deg 1.46 µg/m3
2023-05-16 13:00 7.04 µg/m3 0.27 µg/m3 0 µg/m3 24.86 µg/m3 10.94 µg/m3 19.57 °C 73.83 % 1,002.62 mbar 5.25 m/s 275.72 Deg 1.29 µg/m3
2023-05-16 12:00 7.1 µg/m3 0.26 µg/m3 0 µg/m3 38.77 µg/m3 10.68 µg/m3 19.02 °C 77.04 % 1,002.37 mbar 5.46 m/s 279.88 Deg 1.3 µg/m3
2023-05-16 11:00 7.28 µg/m3 0.27 µg/m3 51.35 µg/m3 36.89 µg/m3 14.48 µg/m3 18.92 °C 76.93 % 1,002.09 mbar 5.4 m/s 275.83 Deg 1.37 µg/m3
2023-05-16 10:00 7.51 µg/m3 0.32 µg/m3 0 µg/m3 43.63 µg/m3 13.8 µg/m3 18.61 °C 77.62 % 1,001.55 mbar 5.42 m/s 272.02 Deg 1.45 µg/m3
2023-05-16 09:00 8.34 µg/m3 0.37 µg/m3 0 µg/m3 36.86 µg/m3 9.82 µg/m3 18.15 °C 79.43 % 1,000.98 mbar 5.45 m/s 279.05 Deg 1.55 µg/m3
2023-05-16 08:00 0 µg/m3 0 µg/m3 0 µg/m3 34.31 µg/m3 7.3 µg/m3 17.47 °C 83.67 % 1,000.66 mbar 4.59 m/s 272.25 Deg 0 µg/m3
2023-05-16 07:00 0 µg/m3 0 µg/m3 0 µg/m3 28.61 µg/m3 8.72 µg/m3 16.98 °C 85.71 % 1,000.28 mbar 4.53 m/s 281.08 Deg 0 µg/m3
2023-05-16 06:00 10.42 µg/m3 0.31 µg/m3 84.88 µg/m3 24.11 µg/m3 5.31 µg/m3 17.02 °C 82.56 % 999.79 mbar 4.44 m/s 278.82 Deg 1.18 µg/m3
2023-05-16 05:00 5.33 µg/m3 0.26 µg/m3 92.95 µg/m3 19.95 µg/m3 6.83 µg/m3 16.87 °C 82.74 % 999.44 mbar 4.97 m/s 277.55 Deg 0.58 µg/m3
2023-05-16 04:00 2.73 µg/m3 0.26 µg/m3 96.59 µg/m3 12.43 µg/m3 6.11 µg/m3 16.79 °C 82.62 % 999.14 mbar 4.19 m/s 280.12 Deg 0.32 µg/m3
2023-05-16 03:00 2.37 µg/m3 0.21 µg/m3 98.77 µg/m3 14.08 µg/m3 5.66 µg/m3 16.46 °C 84.68 % 999.13 mbar 4.51 m/s 279.5 Deg 0.32 µg/m3
2023-05-16 02:00 2.04 µg/m3 0.12 µg/m3 97.07 µg/m3 19.03 µg/m3 4.49 µg/m3 15.5 °C 83.71 % 999.17 mbar 4.44 m/s 283.53 Deg 0.26 µg/m3
2023-05-16 01:00 2 µg/m3 0.02 µg/m3 95.62 µg/m3 22.93 µg/m3 4.45 µg/m3 15.18 °C 88.93 % 999.18 mbar 4.5 m/s 284.93 Deg 0.25 µg/m3
2023-05-16 00:00 2.15 µg/m3 0.1 µg/m3 94.22 µg/m3 28.64 µg/m3 4.4 µg/m3 16.54 °C 86.38 % 998.92 mbar 6.19 m/s 275.6 Deg 0.29 µg/m3
2023-05-15 23:00 2.93 µg/m3 0.07 µg/m3 96.63 µg/m3 15.81 µg/m3 5.37 µg/m3 16.78 °C 80.84 % 998.60 mbar 6.54 m/s 278.93 Deg 0.33 µg/m3
2023-05-15 22:00 2.82 µg/m3 0.07 µg/m3 100.32 µg/m3 11.15 µg/m3 5.51 µg/m3 16.71 °C 72.58 % 998.17 mbar 6.08 m/s 285.28 Deg 0.41 µg/m3
2023-05-15 21:00 3.19 µg/m3 0.03 µg/m3 98.55 µg/m3 14.02 µg/m3 6.78 µg/m3 16.63 °C 70.24 % 997.29 mbar 6.18 m/s 290.98 Deg 0.53 µg/m3
2023-05-15 20:00 4.94 µg/m3 0.04 µg/m3 97.4 µg/m3 16.98 µg/m3 7.18 µg/m3 16.44 °C 79.35 % 996.32 mbar 5.76 m/s 297.2 Deg 0.7 µg/m3
2023-05-15 19:00 7 µg/m3 0.07 µg/m3 93.89 µg/m3 20.62 µg/m3 6.87 µg/m3 16.3 °C 84.99 % 995.40 mbar 5.73 m/s 297.97 Deg 1.05 µg/m3
2023-05-15 18:00 6.69 µg/m3 0.04 µg/m3 93.32 µg/m3 28.27 µg/m3 7.75 µg/m3 17.01 °C 89.71 % 994.40 mbar 5.4 m/s 290.22 Deg 1.14 µg/m3
2023-05-15 17:00 6.8 µg/m3 0.08 µg/m3 97.23 µg/m3 38.44 µg/m3 11.39 µg/m3 18.1 °C 86.45 % 993.92 mbar 6.57 m/s 271.93 Deg 1.12 µg/m3
2023-05-15 16:00 6.89 µg/m3 0.06 µg/m3 89.18 µg/m3 37.8 µg/m3 15.18 µg/m3 20.03 °C 81.23 % 993.25 mbar 6.41 m/s 272.8 Deg 1.37 µg/m3
2023-05-15 15:00 11.49 µg/m3 0.15 µg/m3 85.1 µg/m3 43.04 µg/m3 14.66 µg/m3 22.91 °C 63.92 % 992.71 mbar 3.41 m/s 303.38 Deg 2.49 µg/m3
2023-05-15 14:00 12.88 µg/m3 0.13 µg/m3 83.56 µg/m3 46.64 µg/m3 17.75 µg/m3 21.56 °C 71.87 % 992.69 mbar 3.93 m/s 337.68 Deg 3.48 µg/m3
2023-05-15 13:00 8.56 µg/m3 0.09 µg/m3 77.99 µg/m3 62.74 µg/m3 24.84 µg/m3 20.51 °C 83.55 % 992.85 mbar 4.93 m/s 346.02 Deg 2.76 µg/m3
2023-05-15 12:00 5.9 µg/m3 0.08 µg/m3 82.59 µg/m3 71.44 µg/m3 17.81 µg/m3 19.51 °C 91.72 % 992.91 mbar 6.13 m/s 7.7 Deg 1.65 µg/m3
2023-05-15 11:00 6.8 µg/m3 0.14 µg/m3 78.39 µg/m3 84.92 µg/m3 16.9 µg/m3 19.84 °C 89.81 % 993.57 mbar 5.74 m/s 17.83 Deg 2.39 µg/m3
2023-05-15 10:00 8.11 µg/m3 0.17 µg/m3 77.26 µg/m3 87.81 µg/m3 19.75 µg/m3 19.77 °C 89.82 % 994.70 mbar 4.6 m/s 25.92 Deg 2.66 µg/m3
2023-05-15 09:00 11.69 µg/m3 0.18 µg/m3 67.55 µg/m3 89.87 µg/m3 22.96 µg/m3 18.94 °C 95.92 % 996.03 mbar 3.62 m/s 20.3 Deg 2.55 µg/m3
2023-05-15 08:00 15.16 µg/m3 0.22 µg/m3 57.16 µg/m3 86.14 µg/m3 21.26 µg/m3 18.58 °C 97.7 % 996.08 mbar 3.55 m/s 23.15 Deg 4.73 µg/m3
2023-05-15 07:00 15.19 µg/m3 0.16 µg/m3 60.56 µg/m3 70.44 µg/m3 17.09 µg/m3 18.58 °C 95.16 % 996.99 mbar 3.12 m/s 42.48 Deg 2.59 µg/m3
2023-05-15 06:00 10.13 µg/m3 0.06 µg/m3 70.05 µg/m3 55.57 µg/m3 10.96 µg/m3 18.65 °C 94.19 % 995.82 mbar 3.11 m/s 160.1 Deg 1.17 µg/m3
2023-05-15 05:00 9.47 µg/m3 0.11 µg/m3 69.09 µg/m3 69.02 µg/m3 15.43 µg/m3 17.9 °C 99.9 % 995.96 mbar 4.87 m/s 31.82 Deg 0.81 µg/m3
2023-05-15 04:00 9.6 µg/m3 0.17 µg/m3 60.17 µg/m3 79.46 µg/m3 13.35 µg/m3 18.42 °C 99.3 % 999.39 mbar 3.68 m/s 102.78 Deg 0.56 µg/m3
2023-05-15 03:00 6.73 µg/m3 0.05 µg/m3 65.92 µg/m3 69.42 µg/m3 18.33 µg/m3 18.48 °C 99.34 % 1,000.46 mbar 1.96 m/s 304.57 Deg 0.57 µg/m3
2023-05-15 02:00 6.22 µg/m3 0.07 µg/m3 76.82 µg/m3 73.31 µg/m3 17.97 µg/m3 18.26 °C 99.55 % 998.17 mbar 2.67 m/s 185.87 Deg 0.35 µg/m3
2023-05-15 01:00 15.7 µg/m3 0.12 µg/m3 61.94 µg/m3 70.16 µg/m3 21.11 µg/m3 18.35 °C 97.68 % 999.01 mbar 2.98 m/s 18.1 Deg 0.46 µg/m3
2023-05-15 00:00 21.67 µg/m3 0.25 µg/m3 58.84 µg/m3 72.78 µg/m3 13.99 µg/m3 18.5 °C 96.22 % 1,000.16 mbar 2.95 m/s 343.23 Deg 0.75 µg/m3
2023-05-14 23:00 19.12 µg/m3 0.13 µg/m3 58.91 µg/m3 72.93 µg/m3 14.85 µg/m3 18.53 °C 95.15 % 1,000.98 mbar 2.27 m/s 347.35 Deg 0.88 µg/m3
2023-05-14 22:00 16.11 µg/m3 0.15 µg/m3 64.64 µg/m3 67.19 µg/m3 12.48 µg/m3 18.92 °C 91.55 % 1,001.91 mbar 2.1 m/s 99.5 Deg 0.77 µg/m3
2023-05-14 21:00 13.52 µg/m3 0.18 µg/m3 69.01 µg/m3 62.22 µg/m3 14.85 µg/m3 19.37 °C 87.25 % 1,002.81 mbar 3.71 m/s 264.15 Deg 0.85 µg/m3
2023-05-14 20:00 15.59 µg/m3 0.19 µg/m3 70.76 µg/m3 48.95 µg/m3 8.42 µg/m3 19.92 °C 82.96 % 1,002.78 mbar 3.21 m/s 173.22 Deg 0.9 µg/m3
2023-05-14 19:00 10.78 µg/m3 0.18 µg/m3 79.79 µg/m3 37.26 µg/m3 13.22 µg/m3 20.32 °C 81.22 % 1,001.59 mbar 3.69 m/s 301.15 Deg 0.86 µg/m3
2023-05-14 18:00 7.52 µg/m3 0.07 µg/m3 86.24 µg/m3 39.11 µg/m3 21.7 µg/m3 18.95 °C 92.65 % 1,000.17 mbar 8.71 m/s 122.8 Deg 0.37 µg/m3
2023-05-14 17:00 11.2 µg/m3 0.19 µg/m3 82.95 µg/m3 54.58 µg/m3 7.84 µg/m3 18.91 °C 93.65 % 1,001.98 mbar 5.88 m/s 171.38 Deg 0.82 µg/m3
2023-05-14 16:00 14.48 µg/m3 0.17 µg/m3 81.95 µg/m3 63.05 µg/m3 12.8 µg/m3 19.6 °C 88.25 % 1,003.46 mbar 3.61 m/s 14.73 Deg 1.45 µg/m3
2023-05-14 15:00 11.44 µg/m3 0.17 µg/m3 86.4 µg/m3 48.98 µg/m3 10.58 µg/m3 19.98 °C 84.88 % 1,003.66 mbar 3.39 m/s 31.17 Deg 1.02 µg/m3
2023-05-14 14:00 9.61 µg/m3 0.16 µg/m3 88.94 µg/m3 48.6 µg/m3 13.46 µg/m3 19.78 °C 87.84 % 1,003.09 mbar 4.33 m/s 34.35 Deg 1.09 µg/m3
2023-05-14 13:00 6.58 µg/m3 0.1 µg/m3 92.99 µg/m3 50.85 µg/m3 12.57 µg/m3 20.12 °C 86.09 % 1,003.97 mbar 3.97 m/s 27.83 Deg 1.1 µg/m3
2023-05-14 12:00 8.81 µg/m3 0.18 µg/m3 90.94 µg/m3 65.65 µg/m3 16.48 µg/m3 20.1 °C 85.56 % 1,004.00 mbar 3.83 m/s 125.8 Deg 1.13 µg/m3
2023-05-14 11:00 9.32 µg/m3 0.18 µg/m3 84.78 µg/m3 66.94 µg/m3 10.76 µg/m3 19.93 °C 86.71 % 1,003.69 mbar 4.01 m/s 105.18 Deg 1.4 µg/m3
2023-05-14 10:00 11.47 µg/m3 0.27 µg/m3 80.67 µg/m3 77.17 µg/m3 17.04 µg/m3 19.64 °C 87.88 % 1,003.58 mbar 4.66 m/s 30.82 Deg 1.86 µg/m3
2023-05-14 09:00 13.06 µg/m3 0.23 µg/m3 80.3 µg/m3 93.05 µg/m3 29.19 µg/m3 19.02 °C 91.54 % 1,003.14 mbar 4.26 m/s 30.58 Deg 1.43 µg/m3
2023-05-14 08:00 14.42 µg/m3 0.25 µg/m3 71.34 µg/m3 95.67 µg/m3 23.1 µg/m3 19.93 °C 85.7 % 1,003.75 mbar 2.85 m/s 99.82 Deg 1.96 µg/m3
2023-05-14 07:00 27.17 µg/m3 0.34 µg/m3 50.1 µg/m3 85.9 µg/m3 23.19 µg/m3 21.08 °C 75.2 % 1,002.65 mbar 1.72 m/s 99.33 Deg 3.36 µg/m3
2023-05-14 06:00 30.93 µg/m3 0.23 µg/m3 52.12 µg/m3 67.99 µg/m3 8.86 µg/m3 21.69 °C 70.55 % 1,001.89 mbar 1.43 m/s 240.6 Deg 2.11 µg/m3
2023-05-14 05:00 4.3 µg/m3 0.11 µg/m3 81.61 µg/m3 80.3 µg/m3 13.92 µg/m3 21.67 °C 69.71 % 1,000.51 mbar 4.09 m/s 163.43 Deg 0.32 µg/m3
2023-05-14 04:00 5.76 µg/m3 0.13 µg/m3 70.88 µg/m3 90.61 µg/m3 18.15 µg/m3 20.29 °C 78.11 % 1,001.28 mbar 2.59 m/s 203.4 Deg 0.34 µg/m3
2023-05-14 03:00 12.31 µg/m3 0.14 µg/m3 70.68 µg/m3 81.34 µg/m3 9.22 µg/m3 20.72 °C 76.23 % 1,002.01 mbar 1.61 m/s 253.93 Deg 0.47 µg/m3
2023-05-14 02:00 11.11 µg/m3 0.17 µg/m3 68.94 µg/m3 61.18 µg/m3 13.97 µg/m3 21.76 °C 70.09 % 1,001.98 mbar 1.42 m/s 103.22 Deg 0.47 µg/m3
2023-05-14 01:00 1.74 µg/m3 0.07 µg/m3 87.76 µg/m3 58.95 µg/m3 16 µg/m3 22.85 °C 64.86 % 1,002.30 mbar 3.3 m/s 250.7 Deg 0.32 µg/m3
2023-05-14 00:00 2.71 µg/m3 0.06 µg/m3 90.24 µg/m3 53.37 µg/m3 8.64 µg/m3 21.98 °C 69.93 % 1,001.56 mbar 6.02 m/s 219.35 Deg 0.31 µg/m3
2023-05-13 23:00 6.77 µg/m3 0.07 µg/m3 89.66 µg/m3 44.36 µg/m3 12.32 µg/m3 21.25 °C 73.48 % 1,000.89 mbar 6.89 m/s 160.8 Deg 0.3 µg/m3
2023-05-13 22:00 3.52 µg/m3 0.06 µg/m3 90.73 µg/m3 57.59 µg/m3 18.16 µg/m3 20.9 °C 75.4 % 1,001.87 mbar 6.41 m/s 151.53 Deg 0.29 µg/m3
2023-05-13 21:00 10.67 µg/m3 0.1 µg/m3 82.29 µg/m3 50.77 µg/m3 9.37 µg/m3 20.62 °C 78.38 % 1,002.30 mbar 4.56 m/s 156.12 Deg 0.33 µg/m3
2023-05-13 20:00 6.05 µg/m3 0.1 µg/m3 82.52 µg/m3 42.69 µg/m3 14.24 µg/m3 20.21 °C 81.72 % 1,002.41 mbar 6.96 m/s 150.03 Deg 0.36 µg/m3
2023-05-13 19:00 11.06 µg/m3 0.13 µg/m3 78.47 µg/m3 38.63 µg/m3 10.12 µg/m3 19.76 °C 86.24 % 1,002.87 mbar 6.15 m/s 155.45 Deg 0.42 µg/m3
2023-05-13 18:00 16.71 µg/m3 0.13 µg/m3 76.06 µg/m3 43.86 µg/m3 5.9 µg/m3 19.76 °C 86.33 % 1,002.75 mbar 5.4 m/s 160.37 Deg 0.76 µg/m3
2023-05-13 17:00 4.29 µg/m3 0.14 µg/m3 91.78 µg/m3 36.3 µg/m3 7.99 µg/m3 19.73 °C 85.98 % 1,003.40 mbar 6.78 m/s 148.47 Deg 0.41 µg/m3
2023-05-13 16:00 1.39 µg/m3 0.1 µg/m3 96.13 µg/m3 36.43 µg/m3 5.7 µg/m3 19.89 °C 83.57 % 1,003.56 mbar 8.87 m/s 144.53 Deg 0.36 µg/m3
2023-05-13 15:00 1.08 µg/m3 0.07 µg/m3 93.25 µg/m3 26.9 µg/m3 7.03 µg/m3 20.04 °C 81.6 % 1,004.04 mbar 10.75 m/s 144.45 Deg 0.34 µg/m3
2023-05-13 14:00 3.64 µg/m3 0.05 µg/m3 89.34 µg/m3 23.36 µg/m3 8.16 µg/m3 20.36 °C 79.24 % 1,005.37 mbar 9.5 m/s 149.33 Deg 0.58 µg/m3
2023-05-13 13:00 2.02 µg/m3 0.03 µg/m3 88.67 µg/m3 32.23 µg/m3 8.87 µg/m3 20.21 °C 81.64 % 1,005.53 mbar 9.97 m/s 142.13 Deg 0.53 µg/m3
2023-05-13 12:00 5.75 µg/m3 0.09 µg/m3 83.61 µg/m3 23.94 µg/m3 11.95 µg/m3 19.37 °C 85.67 % 1,007.32 mbar 8.78 m/s 129.47 Deg 0.65 µg/m3
2023-05-13 11:00 1.8 µg/m3 0.05 µg/m3 88.85 µg/m3 28.34 µg/m3 17.52 µg/m3 19.91 °C 81.58 % 1,008.64 mbar 8.95 m/s 128.98 Deg 0.43 µg/m3
2023-05-13 10:00 2.12 µg/m3 0.09 µg/m3 87.86 µg/m3 34.77 µg/m3 7.22 µg/m3 19.92 °C 80.95 % 1,009.20 mbar 8.42 m/s 127.55 Deg 0.45 µg/m3
2023-05-13 09:00 8.03 µg/m3 0.12 µg/m3 79.4 µg/m3 25.43 µg/m3 9.07 µg/m3 19.47 °C 83.52 % 1,010.54 mbar 3.57 m/s 236.05 Deg 1.2 µg/m3
2023-05-13 08:00 1.69 µg/m3 0.09 µg/m3 87.9 µg/m3 15.29 µg/m3 6.41 µg/m3 19.52 °C 81.53 % 1,005.79 mbar 7.87 m/s 138.82 Deg 0.39 µg/m3
2023-05-13 07:00 2.35 µg/m3 0.07 µg/m3 87.3 µg/m3 17.27 µg/m3 7.33 µg/m3 19.84 °C 77.43 % 1,005.73 mbar 8.57 m/s 140.92 Deg 0.48 µg/m3
2023-05-13 06:00 1.09 µg/m3 0.09 µg/m3 84.95 µg/m3 24.5 µg/m3 7.21 µg/m3 19.19 °C 83.92 % 1,006.20 mbar 8.23 m/s 132.93 Deg 0.34 µg/m3
2023-05-13 05:00 0.72 µg/m3 0.09 µg/m3 82.56 µg/m3 22.66 µg/m3 8.6 µg/m3 18.63 °C 90.81 % 1,007.21 mbar 7.07 m/s 142.22 Deg 0.3 µg/m3
2023-05-13 04:00 3.66 µg/m3 0.25 µg/m3 77.06 µg/m3 27.49 µg/m3 5.25 µg/m3 18.59 °C 93.02 % 1,008.24 mbar 4 m/s 161.18 Deg 0.34 µg/m3
2023-05-13 03:00 5.19 µg/m3 0.11 µg/m3 78.12 µg/m3 15.83 µg/m3 5.64 µg/m3 18.87 °C 88.11 % 1,007.66 mbar 3.85 m/s 162.47 Deg 0.33 µg/m3
2023-05-13 02:00 1.72 µg/m3 0.07 µg/m3 80.08 µg/m3 17.66 µg/m3 5.91 µg/m3 18.52 °C 92.79 % 1,008.22 mbar 4.37 m/s 172.85 Deg 0.34 µg/m3
2023-05-13 01:00 17.05 µg/m3 0.16 µg/m3 63.62 µg/m3 22.32 µg/m3 5.85 µg/m3 18.45 °C 95.59 % 1,009.04 mbar 4.74 m/s 178.63 Deg 0.42 µg/m3
2023-05-13 00:00 4.4 µg/m3 0.03 µg/m3 72.6 µg/m3 22.92 µg/m3 6.98 µg/m3 18.53 °C 93.06 % 1,008.75 mbar 4.26 m/s 161.73 Deg 0.31 µg/m3
2023-05-12 23:00 0.61 µg/m3 0.06 µg/m3 75.57 µg/m3 22.21 µg/m3 7.87 µg/m3 18.24 °C 95.22 % 1,008.15 mbar 5.66 m/s 141.9 Deg 0.3 µg/m3
2023-05-12 22:00 1.01 µg/m3 0.06 µg/m3 73.34 µg/m3 22.99 µg/m3 8.38 µg/m3 18.14 °C 96.82 % 1,008.98 mbar 5.73 m/s 139.12 Deg 0.29 µg/m3
2023-05-12 21:00 3.66 µg/m3 0.1 µg/m3 68.49 µg/m3 19.16 µg/m3 5.94 µg/m3 18.09 °C 97.38 % 1,009.15 mbar 5.19 m/s 131.67 Deg 0.31 µg/m3
2023-05-12 20:00 1.53 µg/m3 0.08 µg/m3 72.74 µg/m3 17.36 µg/m3 6.91 µg/m3 18.25 °C 94.1 % 1,008.99 mbar 4.88 m/s 132.77 Deg 0.32 µg/m3
2023-05-12 19:00 2.9 µg/m3 0.09 µg/m3 73.13 µg/m3 25.14 µg/m3 7.96 µg/m3 18.62 °C 88.6 % 1,009.06 mbar 4.29 m/s 139.7 Deg 0.39 µg/m3
2023-05-12 18:00 10.04 µg/m3 0.32 µg/m3 68.94 µg/m3 20.94 µg/m3 5.29 µg/m3 18.76 °C 89.58 % 1,009.41 mbar 3.51 m/s 149.8 Deg 0.69 µg/m3
2023-05-12 17:00 3 µg/m3 0.11 µg/m3 79.23 µg/m3 10.49 µg/m3 4.08 µg/m3 18.84 °C 90.1 % 1,009.23 mbar 3.27 m/s 126.62 Deg 0.59 µg/m3
2023-05-12 16:00 2.7 µg/m3 0.1 µg/m3 -96.11 µg/m3 7.06 µg/m3 5.27 µg/m3 19.08 °C 84.74 % 1,009.37 mbar 4.33 m/s 139.5 Deg 0.65 µg/m3
2023-05-12 15:00 4.69 µg/m3 0.13 µg/m3 85.52 µg/m3 8.55 µg/m3 4.68 µg/m3 18.73 °C 85.41 % 1,009.88 mbar 4.73 m/s 159.17 Deg 1.03 µg/m3
2023-05-12 14:00 7.37 µg/m3 0.15 µg/m3 86.77 µg/m3 11.46 µg/m3 4.7 µg/m3 19.07 °C 81.63 % 1,010.26 mbar 3.99 m/s 156.75 Deg 1.51 µg/m3
2023-05-12 13:00 10.04 µg/m3 0.32 µg/m3 85.7 µg/m3 13.03 µg/m3 5.73 µg/m3 18.6 °C 75.79 % 1,011.10 mbar 3.84 m/s 165.23 Deg 1.87 µg/m3
2023-05-12 12:00 14.37 µg/m3 0.23 µg/m3 88.85 µg/m3 15.48 µg/m3 7.98 µg/m3 20.34 °C 72.55 % 1,010.91 mbar 2.42 m/s 216.81 Deg 2.54 µg/m3
2023-05-12 11:00 10.02 µg/m3 0.25 µg/m3 90.11 µg/m3 22.48 µg/m3 9.7 µg/m3 18.52 °C 85.2 % 1,010.99 mbar 1.7 m/s 233.54 Deg 2.28 µg/m3
2023-05-12 10:00 19.28 µg/m3 0.38 µg/m3 78.31 µg/m3 24.11 µg/m3 5.2 µg/m3 16.54 °C 96.47 % 1,010.76 mbar 1.89 m/s 176.05 Deg 3.77 µg/m3
2023-05-12 09:00 10.1 µg/m3 0.18 µg/m3 81.07 µg/m3 18.48 µg/m3 3.48 µg/m3 16.08 °C 91.42 % 1,010.91 mbar 1.63 m/s 226.28 Deg 1.02 µg/m3
2023-05-12 08:00 17.27 µg/m3 0.36 µg/m3 70.13 µg/m3 11.2 µg/m3 4.07 µg/m3 15.84 °C 84.89 % 1,010.48 mbar 2.6 m/s 221.57 Deg 3.2 µg/m3
2023-05-12 07:00 15.21 µg/m3 0.22 µg/m3 67.43 µg/m3 11.59 µg/m3 5.25 µg/m3 14.96 °C 90.72 % 1,010.57 mbar 2.77 m/s 193.32 Deg 1.52 µg/m3
2023-05-12 06:00 20.82 µg/m3 0.2 µg/m3 64.51 µg/m3 16.44 µg/m3 4.38 µg/m3 16.31 °C 81.33 % 1,011.21 mbar 2.73 m/s 266.83 Deg 1.24 µg/m3
2023-05-12 05:00 11.23 µg/m3 0.14 µg/m3 65.74 µg/m3 16.15 µg/m3 5.89 µg/m3 16.33 °C 85.93 % 1,009.95 mbar 1.97 m/s 235.38 Deg 0.79 µg/m3
2023-05-12 04:00 3.93 µg/m3 0.08 µg/m3 65.95 µg/m3 22.1 µg/m3 5.08 µg/m3 16.7 °C 89.66 % 1,009.74 mbar 1.16 m/s 224.2 Deg 0.35 µg/m3
2023-05-12 03:00 6.08 µg/m3 0.12 µg/m3 72.21 µg/m3 27.22 µg/m3 5.95 µg/m3 17.3 °C 90.37 % 1,009.79 mbar 1.63 m/s 217.68 Deg 0.33 µg/m3
2023-05-12 02:00 3.05 µg/m3 0.12 µg/m3 72.97 µg/m3 34.56 µg/m3 6.52 µg/m3 17.01 °C 92.53 % 1,010.34 mbar 1.19 m/s 290.9 Deg 0.34 µg/m3
2023-05-12 01:00 3.64 µg/m3 0.1 µg/m3 77.39 µg/m3 38.15 µg/m3 6.21 µg/m3 16.89 °C 91.91 % 1,010.46 mbar 1.26 m/s 286.3 Deg 0.33 µg/m3
2023-05-12 00:00 4.59 µg/m3 0.11 µg/m3 79.91 µg/m3 35.55 µg/m3 5.92 µg/m3 16.8 °C 92.25 % 1,010.57 mbar 1.17 m/s 273.79 Deg 0.3 µg/m3
2023-05-11 23:00 7.3 µg/m3 0.12 µg/m3 80.49 µg/m3 26.55 µg/m3 8.37 µg/m3 17.02 °C 88.99 % 1,010.48 mbar 1.64 m/s 286.6 Deg 0.42 µg/m3
2023-05-11 22:00 9.5 µg/m3 0.14 µg/m3 79.88 µg/m3 34.65 µg/m3 9.39 µg/m3 16.94 °C 83.83 % 1,010.20 mbar 1.59 m/s 273.07 Deg 0.41 µg/m3
2023-05-11 21:00 13.56 µg/m3 0.18 µg/m3 79.82 µg/m3 43.45 µg/m3 15.22 µg/m3 17.13 °C 81.1 % 1,010.03 mbar 1.78 m/s 268.93 Deg 0.94 µg/m3
2023-05-11 20:00 14.54 µg/m3 0.28 µg/m3 81.18 µg/m3 31 µg/m3 6.02 µg/m3 17.62 °C 78.53 % 1,009.51 mbar 1.93 m/s 272.67 Deg 0.78 µg/m3
2023-05-11 19:00 11.75 µg/m3 0.23 µg/m3 84.6 µg/m3 21.21 µg/m3 5.03 µg/m3 18.47 °C 69.15 % 1,008.97 mbar 2.94 m/s 287.97 Deg 1.07 µg/m3
2023-05-11 18:00 7.8 µg/m3 0.2 µg/m3 88.32 µg/m3 26.86 µg/m3 4.93 µg/m3 19.46 °C 60.63 % 1,008.73 mbar 3.42 m/s 282.63 Deg 1.15 µg/m3
2023-05-11 17:00 7.7 µg/m3 0.2 µg/m3 89.36 µg/m3 34.62 µg/m3 6.42 µg/m3 20.14 °C 63.28 % 1,008.71 mbar 3.76 m/s 284.9 Deg 1.49 µg/m3
2023-05-11 16:00 9.15 µg/m3 0.3 µg/m3 97.84 µg/m3 19.43 µg/m3 8.19 µg/m3 20.79 °C 62.46 % 1,008.64 mbar 3.66 m/s 290.65 Deg 1.71 µg/m3
2023-05-11 15:00 11.42 µg/m3 0.25 µg/m3 93.92 µg/m3 17.3 µg/m3 11.41 µg/m3 21.77 °C 50.45 % 1,008.83 mbar 3.17 m/s 305.04 Deg 2.68 µg/m3
2023-05-11 14:00 11.99 µg/m3 0.24 µg/m3 90.53 µg/m3 24.21 µg/m3 6.43 µg/m3 21.37 °C 60.43 % 1,009.15 mbar 2.97 m/s 239.97 Deg 2.89 µg/m3
2023-05-11 13:00 11.25 µg/m3 0.22 µg/m3 87.34 µg/m3 22.51 µg/m3 6.18 µg/m3 20.87 °C 69.9 % 1,009.11 mbar 3.38 m/s 350.68 Deg 3.32 µg/m3
2023-05-11 12:00 11.33 µg/m3 0.19 µg/m3 86.1 µg/m3 34.45 µg/m3 7.29 µg/m3 20.94 °C 68.5 % 1,009.15 mbar 3.29 m/s 260.28 Deg 2.81 µg/m3
2023-05-11 11:00 13.23 µg/m3 0.41 µg/m3 81.2 µg/m3 33.27 µg/m3 8.69 µg/m3 20.58 °C 71.21 % 1,009.22 mbar 3.17 m/s 177.43 Deg 3.93 µg/m3
2023-05-11 10:00 15.45 µg/m3 0.3 µg/m3 75.7 µg/m3 29.33 µg/m3 9.06 µg/m3 20.15 °C 71.36 % 1,009.21 mbar 3.56 m/s 178.08 Deg 5.18 µg/m3
2023-05-11 09:00 14.47 µg/m3 0.28 µg/m3 68.4 µg/m3 25 µg/m3 9.95 µg/m3 19.7 °C 73.59 % 1,009.10 mbar 2.96 m/s 331.27 Deg 5.91 µg/m3
2023-05-11 08:00 14.15 µg/m3 0.25 µg/m3 67.59 µg/m3 34.71 µg/m3 7.41 µg/m3 18.45 °C 81.97 % 1,008.98 mbar 4.03 m/s 333.42 Deg 4.16 µg/m3
2023-05-11 07:00 20.27 µg/m3 0.2 µg/m3 57.23 µg/m3 18.39 µg/m3 6.62 µg/m3 17.49 °C 91.96 % 1,008.76 mbar 3.54 m/s 328.42 Deg 4.43 µg/m3
2023-05-11 06:00 31.32 µg/m3 0.33 µg/m3 38.83 µg/m3 17.04 µg/m3 9.74 µg/m3 16.39 °C 99.09 % 1,008.60 mbar 1.96 m/s 312.27 Deg 5.64 µg/m3
2023-05-11 05:00 19.93 µg/m3 0.18 µg/m3 45.36 µg/m3 25.63 µg/m3 6.16 µg/m3 15.94 °C 99.9 % 1,008.36 mbar 1.14 m/s 300.48 Deg 1.63 µg/m3
2023-05-11 04:00 9.15 µg/m3 0.18 µg/m3 53.02 µg/m3 22.31 µg/m3 4.82 µg/m3 15.31 °C 99.9 % 1,008.37 mbar 1.25 m/s 297.5 Deg 0.49 µg/m3
2023-05-11 03:00 6.57 µg/m3 0.28 µg/m3 60.44 µg/m3 18.77 µg/m3 5.84 µg/m3 15.57 °C 99.9 % 1,008.31 mbar 1.13 m/s 237.07 Deg 0.34 µg/m3
2023-05-11 02:00 4.92 µg/m3 0.43 µg/m3 69.69 µg/m3 18.58 µg/m3 7.92 µg/m3 16.27 °C 99.95 % 1,008.27 mbar 1.09 m/s 268.57 Deg 0.32 µg/m3
2023-05-11 01:00 6.53 µg/m3 0.14 µg/m3 69.49 µg/m3 24.37 µg/m3 9.82 µg/m3 16.6 °C 98.47 % 1,008.62 mbar 1.18 m/s 304.1 Deg 0.39 µg/m3
2023-05-11 00:00 9.29 µg/m3 0.17 µg/m3 66.62 µg/m3 36.73 µg/m3 14.48 µg/m3 16.65 °C 99.45 % 1,008.83 mbar 1.15 m/s 296.58 Deg 0.46 µg/m3
2023-05-10 23:00 14.91 µg/m3 0.14 µg/m3 66.92 µg/m3 29.23 µg/m3 6.53 µg/m3 16.91 °C 96.49 % 1,008.74 mbar 1.33 m/s 302.7 Deg 0.51 µg/m3
2023-05-10 22:00 25.61 µg/m3 0.3 µg/m3 57.85 µg/m3 24.51 µg/m3 6.43 µg/m3 17.36 °C 92.3 % 1,008.65 mbar 0.81 m/s 274.05 Deg 0.61 µg/m3
2023-05-10 21:00 20.89 µg/m3 0.19 µg/m3 73.56 µg/m3 26.57 µg/m3 5.03 µg/m3 17.84 °C 90.08 % 1,008.45 mbar 1.01 m/s 91.4 Deg 1.21 µg/m3
2023-05-10 20:00 26.68 µg/m3 0.36 µg/m3 75.96 µg/m3 17.04 µg/m3 6.18 µg/m3 18.24 °C 75.45 % 1,008.24 mbar 1.63 m/s 175.52 Deg 0.98 µg/m3
2023-05-10 19:00 41.96 µg/m3 0.43 µg/m3 66.22 µg/m3 18.47 µg/m3 9.49 µg/m3 18.47 °C 74.21 % 1,007.67 mbar 1.7 m/s 18.93 Deg 2.26 µg/m3
2023-05-10 18:00 27.64 µg/m3 0.44 µg/m3 83.16 µg/m3 18.55 µg/m3 13.96 µg/m3 18.6 °C 76.31 % 1,007.46 mbar 1.93 m/s 9.47 Deg 2.51 µg/m3
2023-05-10 17:00 15.36 µg/m3 0.47 µg/m3 98.03 µg/m3 14.73 µg/m3 6.21 µg/m3 18.59 °C 78.02 % 1,007.40 mbar 1.86 m/s 110.73 Deg 1.53 µg/m3
2023-05-10 16:00 17.33 µg/m3 0.31 µg/m3 95.7 µg/m3 18.42 µg/m3 5.73 µg/m3 18.31 °C 84.68 % 1,007.53 mbar 2.62 m/s 176.45 Deg 2.05 µg/m3
2023-05-10 15:00 15.73 µg/m3 0.35 µg/m3 98.71 µg/m3 21.31 µg/m3 8.58 µg/m3 18.69 °C 84.28 % 1,007.55 mbar 2.99 m/s 15.98 Deg 1.96 µg/m3

It is to be noted that the data is provisional and subject to quality assurance procedures. For validated data kindly refer your request to contact.air@era.org.mt